<?xml version="1.0" encoding="UTF-8" standalone="no" ?>
<gpx xmlns="http://www.topografix.com/GPX/1/1" xmlns:xsi="http://www.w3.org/2001/XMLSchema-instance" xsi:schemaLocation="http://www.topografix.com/GPX/1/1 http://www.topografix.com/GPX/1/1/gpx.xsd" version="1.1" creator="VisuGPX - https://www.visugpx.com">
  <metadata>
    <name>2021-05-27 Caunes Minervois-Rieusec-Citou</name>
  </metadata>
  <trk>
    <name><![CDATA[2021-05-27 Caunes Minervoir-Rieux sec-Citou avec Reynald,patrick et José]]></name>
    <trkseg>
      <trkpt lat="43.3266" lon="2.52542">
        <ele>186.29</ele>
        <time>2021-05-27T05:14:09Z</time>
      </trkpt>
      <trkpt lat="43.32672" lon="2.52535">
        <ele>185.79</ele>
        <time>2021-05-27T05:15:53Z</time>
      </trkpt>
      <trkpt lat="43.32696" lon="2.5253">
        <ele>185.52</ele>
        <time>2021-05-27T05:16:09Z</time>
      </trkpt>
      <trkpt lat="43.32723" lon="2.52518">
        <ele>188.04</ele>
        <time>2021-05-27T05:16:30Z</time>
      </trkpt>
      <trkpt lat="43.32738" lon="2.52529">
        <ele>189.75</ele>
        <time>2021-05-27T05:16:49Z</time>
      </trkpt>
      <trkpt lat="43.32742" lon="2.52504">
        <ele>189.7</ele>
        <time>2021-05-27T05:17:02Z</time>
      </trkpt>
      <trkpt lat="43.32753" lon="2.52468">
        <ele>190.56</ele>
        <time>2021-05-27T05:17:23Z</time>
      </trkpt>
      <trkpt lat="43.32773" lon="2.52446">
        <ele>191.25</ele>
        <time>2021-05-27T05:17:44Z</time>
      </trkpt>
      <trkpt lat="43.32786" lon="2.52415">
        <ele>190.49</ele>
        <time>2021-05-27T05:17:55Z</time>
      </trkpt>
      <trkpt lat="43.32798" lon="2.52386">
        <ele>190.54</ele>
        <time>2021-05-27T05:18:04Z</time>
      </trkpt>
      <trkpt lat="43.32811" lon="2.5236">
        <ele>190.5</ele>
        <time>2021-05-27T05:18:13Z</time>
      </trkpt>
      <trkpt lat="43.32824" lon="2.52331">
        <ele>190.77</ele>
        <time>2021-05-27T05:18:23Z</time>
      </trkpt>
      <trkpt lat="43.32842" lon="2.5231">
        <ele>191.31</ele>
        <time>2021-05-27T05:18:33Z</time>
      </trkpt>
      <trkpt lat="43.3286" lon="2.5229">
        <ele>191.59</ele>
        <time>2021-05-27T05:18:43Z</time>
      </trkpt>
      <trkpt lat="43.32876" lon="2.52262">
        <ele>191.83</ele>
        <time>2021-05-27T05:18:53Z</time>
      </trkpt>
      <trkpt lat="43.32875" lon="2.52231">
        <ele>191.17</ele>
        <time>2021-05-27T05:19:02Z</time>
      </trkpt>
      <trkpt lat="43.32869" lon="2.52203">
        <ele>191.25</ele>
        <time>2021-05-27T05:19:11Z</time>
      </trkpt>
      <trkpt lat="43.32865" lon="2.52171">
        <ele>192.22</ele>
        <time>2021-05-27T05:19:22Z</time>
      </trkpt>
      <trkpt lat="43.32863" lon="2.52135">
        <ele>194.29</ele>
        <time>2021-05-27T05:19:36Z</time>
      </trkpt>
      <trkpt lat="43.32857" lon="2.52092">
        <ele>196.78</ele>
        <time>2021-05-27T05:19:52Z</time>
      </trkpt>
      <trkpt lat="43.32844" lon="2.52041">
        <ele>201.75</ele>
        <time>2021-05-27T05:20:13Z</time>
      </trkpt>
      <trkpt lat="43.32842" lon="2.51996">
        <ele>205.35</ele>
        <time>2021-05-27T05:20:32Z</time>
      </trkpt>
      <trkpt lat="43.32855" lon="2.51965">
        <ele>210.26</ele>
        <time>2021-05-27T05:20:51Z</time>
      </trkpt>
      <trkpt lat="43.32858" lon="2.51927">
        <ele>215.24</ele>
        <time>2021-05-27T05:21:06Z</time>
      </trkpt>
      <trkpt lat="43.32862" lon="2.51895">
        <ele>218.19</ele>
        <time>2021-05-27T05:21:21Z</time>
      </trkpt>
      <trkpt lat="43.32867" lon="2.5186">
        <ele>220.3</ele>
        <time>2021-05-27T05:21:36Z</time>
      </trkpt>
      <trkpt lat="43.32869" lon="2.51822">
        <ele>222.67</ele>
        <time>2021-05-27T05:21:49Z</time>
      </trkpt>
      <trkpt lat="43.32874" lon="2.5178">
        <ele>225.54</ele>
        <time>2021-05-27T05:22:05Z</time>
      </trkpt>
      <trkpt lat="43.3289" lon="2.51728">
        <ele>234.14</ele>
        <time>2021-05-27T05:22:33Z</time>
      </trkpt>
      <trkpt lat="43.32901" lon="2.51695">
        <ele>241.15</ele>
        <time>2021-05-27T05:22:58Z</time>
      </trkpt>
      <trkpt lat="43.32909" lon="2.5165">
        <ele>245.47</ele>
        <time>2021-05-27T05:23:22Z</time>
      </trkpt>
      <trkpt lat="43.32919" lon="2.51627">
        <ele>247.26</ele>
        <time>2021-05-27T05:23:36Z</time>
      </trkpt>
      <trkpt lat="43.32937" lon="2.51603">
        <ele>249.61</ele>
        <time>2021-05-27T05:23:51Z</time>
      </trkpt>
      <trkpt lat="43.32941" lon="2.51601">
        <ele>249.93</ele>
        <time>2021-05-27T05:23:53Z</time>
      </trkpt>
      <trkpt lat="43.32971" lon="2.51597">
        <ele>252.36</ele>
        <time>2021-05-27T05:24:08Z</time>
      </trkpt>
      <trkpt lat="43.32993" lon="2.51605">
        <ele>255.68</ele>
        <time>2021-05-27T05:24:23Z</time>
      </trkpt>
      <trkpt lat="43.33014" lon="2.51612">
        <ele>259.61</ele>
        <time>2021-05-27T05:24:36Z</time>
      </trkpt>
      <trkpt lat="43.33035" lon="2.51627">
        <ele>263.38</ele>
        <time>2021-05-27T05:24:50Z</time>
      </trkpt>
      <trkpt lat="43.33055" lon="2.5164">
        <ele>267.07</ele>
        <time>2021-05-27T05:25:05Z</time>
      </trkpt>
      <trkpt lat="43.33078" lon="2.5163">
        <ele>270.93</ele>
        <time>2021-05-27T05:25:21Z</time>
      </trkpt>
      <trkpt lat="43.33101" lon="2.51622">
        <ele>275.25</ele>
        <time>2021-05-27T05:25:35Z</time>
      </trkpt>
      <trkpt lat="43.33117" lon="2.51603">
        <ele>279.01</ele>
        <time>2021-05-27T05:25:50Z</time>
      </trkpt>
      <trkpt lat="43.33133" lon="2.5158">
        <ele>281.91</ele>
        <time>2021-05-27T05:26:03Z</time>
      </trkpt>
      <trkpt lat="43.33156" lon="2.51559">
        <ele>287.28</ele>
        <time>2021-05-27T05:26:23Z</time>
      </trkpt>
      <trkpt lat="43.33169" lon="2.51546">
        <ele>291.57</ele>
        <time>2021-05-27T05:26:41Z</time>
      </trkpt>
      <trkpt lat="43.33153" lon="2.51531">
        <ele>294.29</ele>
        <time>2021-05-27T05:26:59Z</time>
      </trkpt>
      <trkpt lat="43.33136" lon="2.51514">
        <ele>294.58</ele>
        <time>2021-05-27T05:27:09Z</time>
      </trkpt>
      <trkpt lat="43.33131" lon="2.51486">
        <ele>294.98</ele>
        <time>2021-05-27T05:27:19Z</time>
      </trkpt>
      <trkpt lat="43.33129" lon="2.51458">
        <ele>296.75</ele>
        <time>2021-05-27T05:27:29Z</time>
      </trkpt>
      <trkpt lat="43.33139" lon="2.51436">
        <ele>299</ele>
        <time>2021-05-27T05:27:40Z</time>
      </trkpt>
      <trkpt lat="43.33149" lon="2.51457">
        <ele>301.43</ele>
        <time>2021-05-27T05:27:50Z</time>
      </trkpt>
      <trkpt lat="43.33165" lon="2.51467">
        <ele>303.39</ele>
        <time>2021-05-27T05:28:00Z</time>
      </trkpt>
      <trkpt lat="43.33168" lon="2.51442">
        <ele>305.59</ele>
        <time>2021-05-27T05:28:09Z</time>
      </trkpt>
      <trkpt lat="43.33178" lon="2.5142">
        <ele>306.88</ele>
        <time>2021-05-27T05:28:18Z</time>
      </trkpt>
      <trkpt lat="43.33195" lon="2.51404">
        <ele>308.37</ele>
        <time>2021-05-27T05:28:28Z</time>
      </trkpt>
      <trkpt lat="43.33211" lon="2.51389">
        <ele>310.14</ele>
        <time>2021-05-27T05:28:38Z</time>
      </trkpt>
      <trkpt lat="43.33228" lon="2.51373">
        <ele>312.69</ele>
        <time>2021-05-27T05:28:52Z</time>
      </trkpt>
      <trkpt lat="43.33243" lon="2.51348">
        <ele>314.66</ele>
        <time>2021-05-27T05:29:04Z</time>
      </trkpt>
      <trkpt lat="43.33259" lon="2.51333">
        <ele>317.85</ele>
        <time>2021-05-27T05:29:17Z</time>
      </trkpt>
      <trkpt lat="43.33258" lon="2.51354">
        <ele>319.78</ele>
        <time>2021-05-27T05:29:31Z</time>
      </trkpt>
      <trkpt lat="43.33258" lon="2.51385">
        <ele>320.6</ele>
        <time>2021-05-27T05:29:51Z</time>
      </trkpt>
      <trkpt lat="43.33268" lon="2.51409">
        <ele>318.19</ele>
        <time>2021-05-27T05:30:02Z</time>
      </trkpt>
      <trkpt lat="43.33277" lon="2.51439">
        <ele>314.64</ele>
        <time>2021-05-27T05:30:14Z</time>
      </trkpt>
      <trkpt lat="43.33291" lon="2.51466">
        <ele>313.49</ele>
        <time>2021-05-27T05:30:24Z</time>
      </trkpt>
      <trkpt lat="43.33306" lon="2.5149">
        <ele>312.99</ele>
        <time>2021-05-27T05:30:33Z</time>
      </trkpt>
      <trkpt lat="43.33323" lon="2.51525">
        <ele>311.12</ele>
        <time>2021-05-27T05:30:47Z</time>
      </trkpt>
      <trkpt lat="43.33372" lon="2.51531">
        <ele>314.85</ele>
        <time>2021-05-27T05:31:11Z</time>
      </trkpt>
      <trkpt lat="43.33375" lon="2.51543">
        <ele>315.84</ele>
        <time>2021-05-27T05:31:25Z</time>
      </trkpt>
      <trkpt lat="43.33354" lon="2.51561">
        <ele>316.36</ele>
        <time>2021-05-27T05:31:36Z</time>
      </trkpt>
      <trkpt lat="43.33336" lon="2.51581">
        <ele>316.93</ele>
        <time>2021-05-27T05:31:45Z</time>
      </trkpt>
      <trkpt lat="43.33315" lon="2.51599">
        <ele>316.88</ele>
        <time>2021-05-27T05:31:54Z</time>
      </trkpt>
      <trkpt lat="43.33303" lon="2.51622">
        <ele>315.97</ele>
        <time>2021-05-27T05:32:02Z</time>
      </trkpt>
      <trkpt lat="43.33304" lon="2.51633">
        <ele>315.74</ele>
        <time>2021-05-27T05:32:06Z</time>
      </trkpt>
      <trkpt lat="43.33306" lon="2.51654">
        <ele>315.68</ele>
        <time>2021-05-27T05:32:14Z</time>
      </trkpt>
      <trkpt lat="43.33314" lon="2.51688">
        <ele>315.96</ele>
        <time>2021-05-27T05:32:24Z</time>
      </trkpt>
      <trkpt lat="43.33329" lon="2.51715">
        <ele>316.35</ele>
        <time>2021-05-27T05:32:34Z</time>
      </trkpt>
      <trkpt lat="43.33348" lon="2.51718">
        <ele>319.78</ele>
        <time>2021-05-27T05:32:52Z</time>
      </trkpt>
      <trkpt lat="43.33357" lon="2.51711">
        <ele>322.72</ele>
        <time>2021-05-27T05:33:10Z</time>
      </trkpt>
      <trkpt lat="43.33372" lon="2.5169">
        <ele>325.7</ele>
        <time>2021-05-27T05:33:25Z</time>
      </trkpt>
      <trkpt lat="43.33389" lon="2.51674">
        <ele>327.95</ele>
        <time>2021-05-27T05:33:37Z</time>
      </trkpt>
      <trkpt lat="43.33409" lon="2.51658">
        <ele>330.66</ele>
        <time>2021-05-27T05:33:49Z</time>
      </trkpt>
      <trkpt lat="43.33427" lon="2.5164">
        <ele>333.66</ele>
        <time>2021-05-27T05:34:03Z</time>
      </trkpt>
      <trkpt lat="43.33449" lon="2.51621">
        <ele>337.09</ele>
        <time>2021-05-27T05:34:17Z</time>
      </trkpt>
      <trkpt lat="43.33468" lon="2.51604">
        <ele>340.14</ele>
        <time>2021-05-27T05:34:30Z</time>
      </trkpt>
      <trkpt lat="43.33487" lon="2.5159">
        <ele>343.44</ele>
        <time>2021-05-27T05:34:43Z</time>
      </trkpt>
      <trkpt lat="43.33506" lon="2.51576">
        <ele>345.57</ele>
        <time>2021-05-27T05:34:56Z</time>
      </trkpt>
      <trkpt lat="43.33526" lon="2.51562">
        <ele>348.94</ele>
        <time>2021-05-27T05:35:14Z</time>
      </trkpt>
      <trkpt lat="43.33552" lon="2.51551">
        <ele>352.22</ele>
        <time>2021-05-27T05:35:35Z</time>
      </trkpt>
      <trkpt lat="43.33581" lon="2.51549">
        <ele>351.72</ele>
        <time>2021-05-27T05:35:51Z</time>
      </trkpt>
      <trkpt lat="43.33615" lon="2.51544">
        <ele>351.36</ele>
        <time>2021-05-27T05:36:16Z</time>
      </trkpt>
      <trkpt lat="43.33651" lon="2.51539">
        <ele>353.61</ele>
        <time>2021-05-27T05:36:43Z</time>
      </trkpt>
      <trkpt lat="43.3369" lon="2.51533">
        <ele>352.44</ele>
        <time>2021-05-27T05:37:06Z</time>
      </trkpt>
      <trkpt lat="43.33753" lon="2.51542">
        <ele>358.2</ele>
        <time>2021-05-27T05:37:50Z</time>
      </trkpt>
      <trkpt lat="43.33792" lon="2.51541">
        <ele>366.81</ele>
        <time>2021-05-27T05:38:21Z</time>
      </trkpt>
      <trkpt lat="43.3382" lon="2.51552">
        <ele>377</ele>
        <time>2021-05-27T05:38:55Z</time>
      </trkpt>
      <trkpt lat="43.33844" lon="2.51546">
        <ele>383.21</ele>
        <time>2021-05-27T05:39:19Z</time>
      </trkpt>
      <trkpt lat="43.33867" lon="2.51534">
        <ele>388.32</ele>
        <time>2021-05-27T05:39:41Z</time>
      </trkpt>
      <trkpt lat="43.33888" lon="2.51535">
        <ele>395.63</ele>
        <time>2021-05-27T05:40:07Z</time>
      </trkpt>
      <trkpt lat="43.33908" lon="2.51529">
        <ele>399.2</ele>
        <time>2021-05-27T05:40:26Z</time>
      </trkpt>
      <trkpt lat="43.33932" lon="2.51534">
        <ele>404.36</ele>
        <time>2021-05-27T05:40:51Z</time>
      </trkpt>
      <trkpt lat="43.33968" lon="2.51548">
        <ele>408.8</ele>
        <time>2021-05-27T05:41:18Z</time>
      </trkpt>
      <trkpt lat="43.33993" lon="2.51547">
        <ele>409.44</ele>
        <time>2021-05-27T05:41:34Z</time>
      </trkpt>
      <trkpt lat="43.34019" lon="2.51547">
        <ele>411.85</ele>
        <time>2021-05-27T05:41:52Z</time>
      </trkpt>
      <trkpt lat="43.34049" lon="2.51542">
        <ele>415.18</ele>
        <time>2021-05-27T05:42:08Z</time>
      </trkpt>
      <trkpt lat="43.34075" lon="2.51541">
        <ele>418.49</ele>
        <time>2021-05-27T05:42:23Z</time>
      </trkpt>
      <trkpt lat="43.34077" lon="2.51541">
        <ele>418.75</ele>
        <time>2021-05-27T05:42:24Z</time>
      </trkpt>
      <trkpt lat="43.34106" lon="2.5154">
        <ele>423.13</ele>
        <time>2021-05-27T05:42:39Z</time>
      </trkpt>
      <trkpt lat="43.34132" lon="2.51541">
        <ele>427.14</ele>
        <time>2021-05-27T05:42:55Z</time>
      </trkpt>
      <trkpt lat="43.34152" lon="2.51544">
        <ele>431.85</ele>
        <time>2021-05-27T05:43:12Z</time>
      </trkpt>
      <trkpt lat="43.34187" lon="2.51548">
        <ele>437</ele>
        <time>2021-05-27T05:43:34Z</time>
      </trkpt>
      <trkpt lat="43.34207" lon="2.51549">
        <ele>441.8</ele>
        <time>2021-05-27T05:43:54Z</time>
      </trkpt>
      <trkpt lat="43.34227" lon="2.51536">
        <ele>448</ele>
        <time>2021-05-27T05:44:19Z</time>
      </trkpt>
      <trkpt lat="43.34235" lon="2.51511">
        <ele>452.72</ele>
        <time>2021-05-27T05:44:41Z</time>
      </trkpt>
      <trkpt lat="43.3425" lon="2.51491">
        <ele>458.6</ele>
        <time>2021-05-27T05:45:05Z</time>
      </trkpt>
      <trkpt lat="43.34271" lon="2.51496">
        <ele>461.17</ele>
        <time>2021-05-27T05:45:26Z</time>
      </trkpt>
      <trkpt lat="43.34287" lon="2.51518">
        <ele>464.02</ele>
        <time>2021-05-27T05:45:48Z</time>
      </trkpt>
      <trkpt lat="43.34295" lon="2.515">
        <ele>465.11</ele>
        <time>2021-05-27T05:46:04Z</time>
      </trkpt>
      <trkpt lat="43.34299" lon="2.51469">
        <ele>467.48</ele>
        <time>2021-05-27T05:46:18Z</time>
      </trkpt>
      <trkpt lat="43.34303" lon="2.51438">
        <ele>469.67</ele>
        <time>2021-05-27T05:46:30Z</time>
      </trkpt>
      <trkpt lat="43.3431" lon="2.51425">
        <ele>471.92</ele>
        <time>2021-05-27T05:46:43Z</time>
      </trkpt>
      <trkpt lat="43.34325" lon="2.51443">
        <ele>473.83</ele>
        <time>2021-05-27T05:46:54Z</time>
      </trkpt>
      <trkpt lat="43.34339" lon="2.51465">
        <ele>475.63</ele>
        <time>2021-05-27T05:47:05Z</time>
      </trkpt>
      <trkpt lat="43.34351" lon="2.51487">
        <ele>477.36</ele>
        <time>2021-05-27T05:47:16Z</time>
      </trkpt>
      <trkpt lat="43.34363" lon="2.51509">
        <ele>479.38</ele>
        <time>2021-05-27T05:47:28Z</time>
      </trkpt>
      <trkpt lat="43.34377" lon="2.51531">
        <ele>481.09</ele>
        <time>2021-05-27T05:47:42Z</time>
      </trkpt>
      <trkpt lat="43.34394" lon="2.51559">
        <ele>482.67</ele>
        <time>2021-05-27T05:47:55Z</time>
      </trkpt>
      <trkpt lat="43.34413" lon="2.51586">
        <ele>484.75</ele>
        <time>2021-05-27T05:48:09Z</time>
      </trkpt>
      <trkpt lat="43.34426" lon="2.51611">
        <ele>486.66</ele>
        <time>2021-05-27T05:48:23Z</time>
      </trkpt>
      <trkpt lat="43.34444" lon="2.51623">
        <ele>488.33</ele>
        <time>2021-05-27T05:48:38Z</time>
      </trkpt>
      <trkpt lat="43.34465" lon="2.51618">
        <ele>490.36</ele>
        <time>2021-05-27T05:48:53Z</time>
      </trkpt>
      <trkpt lat="43.34482" lon="2.51607">
        <ele>492.14</ele>
        <time>2021-05-27T05:49:07Z</time>
      </trkpt>
      <trkpt lat="43.345" lon="2.51592">
        <ele>493.49</ele>
        <time>2021-05-27T05:49:18Z</time>
      </trkpt>
      <trkpt lat="43.3451" lon="2.51565">
        <ele>494.61</ele>
        <time>2021-05-27T05:49:29Z</time>
      </trkpt>
      <trkpt lat="43.3452" lon="2.51532">
        <ele>496.15</ele>
        <time>2021-05-27T05:49:42Z</time>
      </trkpt>
      <trkpt lat="43.34528" lon="2.51501">
        <ele>497.59</ele>
        <time>2021-05-27T05:49:53Z</time>
      </trkpt>
      <trkpt lat="43.34536" lon="2.51472">
        <ele>498.52</ele>
        <time>2021-05-27T05:50:03Z</time>
      </trkpt>
      <trkpt lat="43.34545" lon="2.51443">
        <ele>500</ele>
        <time>2021-05-27T05:50:15Z</time>
      </trkpt>
      <trkpt lat="43.34555" lon="2.51413">
        <ele>501.12</ele>
        <time>2021-05-27T05:50:25Z</time>
      </trkpt>
      <trkpt lat="43.34571" lon="2.5139">
        <ele>502</ele>
        <time>2021-05-27T05:50:35Z</time>
      </trkpt>
      <trkpt lat="43.3459" lon="2.51361">
        <ele>503.09</ele>
        <time>2021-05-27T05:50:53Z</time>
      </trkpt>
      <trkpt lat="43.34607" lon="2.51308">
        <ele>504.37</ele>
        <time>2021-05-27T05:51:10Z</time>
      </trkpt>
      <trkpt lat="43.34626" lon="2.51265">
        <ele>505.94</ele>
        <time>2021-05-27T05:51:25Z</time>
      </trkpt>
      <trkpt lat="43.34637" lon="2.51248">
        <ele>506.83</ele>
        <time>2021-05-27T05:51:31Z</time>
      </trkpt>
      <trkpt lat="43.34649" lon="2.51236">
        <ele>507.35</ele>
        <time>2021-05-27T05:51:37Z</time>
      </trkpt>
      <trkpt lat="43.34666" lon="2.51209">
        <ele>507.94</ele>
        <time>2021-05-27T05:51:47Z</time>
      </trkpt>
      <trkpt lat="43.34686" lon="2.51181">
        <ele>509.31</ele>
        <time>2021-05-27T05:52:00Z</time>
      </trkpt>
      <trkpt lat="43.34706" lon="2.51148">
        <ele>511.21</ele>
        <time>2021-05-27T05:52:16Z</time>
      </trkpt>
      <trkpt lat="43.34749" lon="2.51077">
        <ele>514.1</ele>
        <time>2021-05-27T05:52:47Z</time>
      </trkpt>
      <trkpt lat="43.34777" lon="2.51042">
        <ele>516.82</ele>
        <time>2021-05-27T05:53:04Z</time>
      </trkpt>
      <trkpt lat="43.34804" lon="2.51019">
        <ele>519.38</ele>
        <time>2021-05-27T05:53:25Z</time>
      </trkpt>
      <trkpt lat="43.3483" lon="2.50997">
        <ele>524.12</ele>
        <time>2021-05-27T05:53:46Z</time>
      </trkpt>
      <trkpt lat="43.34859" lon="2.50989">
        <ele>528.93</ele>
        <time>2021-05-27T05:54:09Z</time>
      </trkpt>
      <trkpt lat="43.34887" lon="2.50971">
        <ele>533.66</ele>
        <time>2021-05-27T05:54:31Z</time>
      </trkpt>
      <trkpt lat="43.34908" lon="2.50931">
        <ele>538.18</ele>
        <time>2021-05-27T05:54:57Z</time>
      </trkpt>
      <trkpt lat="43.3494" lon="2.50881">
        <ele>545.9</ele>
        <time>2021-05-27T05:55:32Z</time>
      </trkpt>
      <trkpt lat="43.34982" lon="2.50839">
        <ele>554.31</ele>
        <time>2021-05-27T05:56:06Z</time>
      </trkpt>
      <trkpt lat="43.35001" lon="2.50797">
        <ele>560.11</ele>
        <time>2021-05-27T05:56:32Z</time>
      </trkpt>
      <trkpt lat="43.35013" lon="2.5076">
        <ele>565.28</ele>
        <time>2021-05-27T05:56:54Z</time>
      </trkpt>
      <trkpt lat="43.35025" lon="2.50733">
        <ele>568.71</ele>
        <time>2021-05-27T05:57:16Z</time>
      </trkpt>
      <trkpt lat="43.35036" lon="2.50701">
        <ele>571.85</ele>
        <time>2021-05-27T05:57:34Z</time>
      </trkpt>
      <trkpt lat="43.35046" lon="2.50669">
        <ele>575.81</ele>
        <time>2021-05-27T05:57:54Z</time>
      </trkpt>
      <trkpt lat="43.35055" lon="2.50642">
        <ele>578.61</ele>
        <time>2021-05-27T05:58:08Z</time>
      </trkpt>
      <trkpt lat="43.35069" lon="2.50614">
        <ele>581.21</ele>
        <time>2021-05-27T05:58:22Z</time>
      </trkpt>
      <trkpt lat="43.35085" lon="2.50581">
        <ele>583.84</ele>
        <time>2021-05-27T05:58:36Z</time>
      </trkpt>
      <trkpt lat="43.35099" lon="2.50555">
        <ele>586.25</ele>
        <time>2021-05-27T05:58:48Z</time>
      </trkpt>
      <trkpt lat="43.3512" lon="2.50534">
        <ele>587.34</ele>
        <time>2021-05-27T05:59:01Z</time>
      </trkpt>
      <trkpt lat="43.35147" lon="2.50512">
        <ele>589.05</ele>
        <time>2021-05-27T05:59:18Z</time>
      </trkpt>
      <trkpt lat="43.3517" lon="2.5049">
        <ele>593.16</ele>
        <time>2021-05-27T05:59:33Z</time>
      </trkpt>
      <trkpt lat="43.3519" lon="2.50479">
        <ele>594.64</ele>
        <time>2021-05-27T05:59:42Z</time>
      </trkpt>
      <trkpt lat="43.35223" lon="2.50459">
        <ele>598.82</ele>
        <time>2021-05-27T06:00:04Z</time>
      </trkpt>
      <trkpt lat="43.35246" lon="2.50449">
        <ele>605.11</ele>
        <time>2021-05-27T06:00:27Z</time>
      </trkpt>
      <trkpt lat="43.35247" lon="2.50449">
        <ele>605.73</ele>
        <time>2021-05-27T06:00:29Z</time>
      </trkpt>
      <trkpt lat="43.3527" lon="2.50439">
        <ele>611.79</ele>
        <time>2021-05-27T06:00:55Z</time>
      </trkpt>
      <trkpt lat="43.35305" lon="2.50427">
        <ele>617.69</ele>
        <time>2021-05-27T06:01:21Z</time>
      </trkpt>
      <trkpt lat="43.35328" lon="2.50421">
        <ele>620.19</ele>
        <time>2021-05-27T06:01:37Z</time>
      </trkpt>
      <trkpt lat="43.35355" lon="2.50411">
        <ele>621.99</ele>
        <time>2021-05-27T06:01:50Z</time>
      </trkpt>
      <trkpt lat="43.35377" lon="2.50403">
        <ele>621.86</ele>
        <time>2021-05-27T06:02:00Z</time>
      </trkpt>
      <trkpt lat="43.35398" lon="2.5039">
        <ele>622.82</ele>
        <time>2021-05-27T06:02:11Z</time>
      </trkpt>
      <trkpt lat="43.3542" lon="2.5038">
        <ele>624.1</ele>
        <time>2021-05-27T06:02:22Z</time>
      </trkpt>
      <trkpt lat="43.35441" lon="2.50368">
        <ele>625.87</ele>
        <time>2021-05-27T06:02:33Z</time>
      </trkpt>
      <trkpt lat="43.35463" lon="2.50355">
        <ele>627.09</ele>
        <time>2021-05-27T06:02:43Z</time>
      </trkpt>
      <trkpt lat="43.35482" lon="2.50344">
        <ele>626.22</ele>
        <time>2021-05-27T06:02:53Z</time>
      </trkpt>
      <trkpt lat="43.35504" lon="2.50325">
        <ele>627.02</ele>
        <time>2021-05-27T06:03:07Z</time>
      </trkpt>
      <trkpt lat="43.35533" lon="2.50304">
        <ele>627.45</ele>
        <time>2021-05-27T06:03:21Z</time>
      </trkpt>
      <trkpt lat="43.35557" lon="2.50287">
        <ele>628.31</ele>
        <time>2021-05-27T06:03:32Z</time>
      </trkpt>
      <trkpt lat="43.35576" lon="2.50269">
        <ele>627.08</ele>
        <time>2021-05-27T06:03:43Z</time>
      </trkpt>
      <trkpt lat="43.35603" lon="2.50249">
        <ele>626.36</ele>
        <time>2021-05-27T06:03:59Z</time>
      </trkpt>
      <trkpt lat="43.35638" lon="2.50212">
        <ele>630.09</ele>
        <time>2021-05-27T06:04:22Z</time>
      </trkpt>
      <trkpt lat="43.35659" lon="2.50185">
        <ele>633.21</ele>
        <time>2021-05-27T06:04:37Z</time>
      </trkpt>
      <trkpt lat="43.35672" lon="2.50162">
        <ele>631.76</ele>
        <time>2021-05-27T06:04:48Z</time>
      </trkpt>
      <trkpt lat="43.35684" lon="2.50134">
        <ele>629.57</ele>
        <time>2021-05-27T06:04:58Z</time>
      </trkpt>
      <trkpt lat="43.35694" lon="2.50104">
        <ele>627.26</ele>
        <time>2021-05-27T06:05:07Z</time>
      </trkpt>
      <trkpt lat="43.35708" lon="2.50075">
        <ele>625.49</ele>
        <time>2021-05-27T06:05:19Z</time>
      </trkpt>
      <trkpt lat="43.35719" lon="2.5004">
        <ele>625.69</ele>
        <time>2021-05-27T06:05:31Z</time>
      </trkpt>
      <trkpt lat="43.3573" lon="2.50004">
        <ele>625.55</ele>
        <time>2021-05-27T06:05:42Z</time>
      </trkpt>
      <trkpt lat="43.35741" lon="2.49955">
        <ele>627.33</ele>
        <time>2021-05-27T06:06:01Z</time>
      </trkpt>
      <trkpt lat="43.35753" lon="2.49903">
        <ele>633.45</ele>
        <time>2021-05-27T06:06:24Z</time>
      </trkpt>
      <trkpt lat="43.3576" lon="2.49867">
        <ele>638.52</ele>
        <time>2021-05-27T06:06:43Z</time>
      </trkpt>
      <trkpt lat="43.35767" lon="2.49836">
        <ele>643.47</ele>
        <time>2021-05-27T06:07:01Z</time>
      </trkpt>
      <trkpt lat="43.35773" lon="2.49807">
        <ele>647.65</ele>
        <time>2021-05-27T06:07:20Z</time>
      </trkpt>
      <trkpt lat="43.35779" lon="2.49776">
        <ele>651.45</ele>
        <time>2021-05-27T06:07:38Z</time>
      </trkpt>
      <trkpt lat="43.35791" lon="2.49752">
        <ele>652.51</ele>
        <time>2021-05-27T06:07:50Z</time>
      </trkpt>
      <trkpt lat="43.35804" lon="2.4973">
        <ele>652.3</ele>
        <time>2021-05-27T06:08:00Z</time>
      </trkpt>
      <trkpt lat="43.35818" lon="2.49707">
        <ele>650.12</ele>
        <time>2021-05-27T06:08:10Z</time>
      </trkpt>
      <trkpt lat="43.35838" lon="2.49693">
        <ele>648.14</ele>
        <time>2021-05-27T06:08:20Z</time>
      </trkpt>
      <trkpt lat="43.3585" lon="2.49682">
        <ele>646.37</ele>
        <time>2021-05-27T06:08:26Z</time>
      </trkpt>
      <trkpt lat="43.35857" lon="2.49677">
        <ele>644.68</ele>
        <time>2021-05-27T06:08:30Z</time>
      </trkpt>
      <trkpt lat="43.35876" lon="2.49662">
        <ele>641.95</ele>
        <time>2021-05-27T06:08:42Z</time>
      </trkpt>
      <trkpt lat="43.35901" lon="2.49649">
        <ele>639.85</ele>
        <time>2021-05-27T06:08:53Z</time>
      </trkpt>
      <trkpt lat="43.35923" lon="2.49631">
        <ele>636.77</ele>
        <time>2021-05-27T06:09:03Z</time>
      </trkpt>
      <trkpt lat="43.35944" lon="2.49616">
        <ele>635.22</ele>
        <time>2021-05-27T06:09:12Z</time>
      </trkpt>
      <trkpt lat="43.35969" lon="2.49613">
        <ele>635.7</ele>
        <time>2021-05-27T06:09:25Z</time>
      </trkpt>
      <trkpt lat="43.36013" lon="2.49614">
        <ele>641.81</ele>
        <time>2021-05-27T06:09:49Z</time>
      </trkpt>
      <trkpt lat="43.36048" lon="2.49612">
        <ele>647.38</ele>
        <time>2021-05-27T06:10:13Z</time>
      </trkpt>
      <trkpt lat="43.36079" lon="2.49613">
        <ele>653.64</ele>
        <time>2021-05-27T06:10:38Z</time>
      </trkpt>
      <trkpt lat="43.36103" lon="2.49615">
        <ele>660.29</ele>
        <time>2021-05-27T06:11:04Z</time>
      </trkpt>
      <trkpt lat="43.36125" lon="2.49615">
        <ele>667.8</ele>
        <time>2021-05-27T06:11:29Z</time>
      </trkpt>
      <trkpt lat="43.36145" lon="2.49623">
        <ele>674.25</ele>
        <time>2021-05-27T06:11:53Z</time>
      </trkpt>
      <trkpt lat="43.36167" lon="2.49626">
        <ele>680.93</ele>
        <time>2021-05-27T06:12:18Z</time>
      </trkpt>
      <trkpt lat="43.36188" lon="2.49624">
        <ele>686.62</ele>
        <time>2021-05-27T06:12:41Z</time>
      </trkpt>
      <trkpt lat="43.36209" lon="2.49619">
        <ele>690.54</ele>
        <time>2021-05-27T06:12:59Z</time>
      </trkpt>
      <trkpt lat="43.3623" lon="2.49615">
        <ele>694.22</ele>
        <time>2021-05-27T06:13:17Z</time>
      </trkpt>
      <trkpt lat="43.36251" lon="2.49611">
        <ele>696.85</ele>
        <time>2021-05-27T06:13:32Z</time>
      </trkpt>
      <trkpt lat="43.36272" lon="2.49608">
        <ele>697.23</ele>
        <time>2021-05-27T06:13:43Z</time>
      </trkpt>
      <trkpt lat="43.36294" lon="2.49602">
        <ele>697.71</ele>
        <time>2021-05-27T06:13:54Z</time>
      </trkpt>
      <trkpt lat="43.36332" lon="2.49593">
        <ele>699.48</ele>
        <time>2021-05-27T06:14:13Z</time>
      </trkpt>
      <trkpt lat="43.36363" lon="2.49587">
        <ele>703.06</ele>
        <time>2021-05-27T06:14:33Z</time>
      </trkpt>
      <trkpt lat="43.36389" lon="2.49582">
        <ele>707.88</ele>
        <time>2021-05-27T06:14:51Z</time>
      </trkpt>
      <trkpt lat="43.36411" lon="2.49578">
        <ele>712.92</ele>
        <time>2021-05-27T06:15:08Z</time>
      </trkpt>
      <trkpt lat="43.36435" lon="2.49572">
        <ele>719.26</ele>
        <time>2021-05-27T06:15:30Z</time>
      </trkpt>
      <trkpt lat="43.36455" lon="2.4957">
        <ele>725.59</ele>
        <time>2021-05-27T06:15:53Z</time>
      </trkpt>
      <trkpt lat="43.36478" lon="2.4957">
        <ele>730.41</ele>
        <time>2021-05-27T06:16:13Z</time>
      </trkpt>
      <trkpt lat="43.36497" lon="2.4957">
        <ele>734.55</ele>
        <time>2021-05-27T06:16:31Z</time>
      </trkpt>
      <trkpt lat="43.36518" lon="2.49564">
        <ele>740.1</ele>
        <time>2021-05-27T06:16:51Z</time>
      </trkpt>
      <trkpt lat="43.36536" lon="2.49558">
        <ele>744.77</ele>
        <time>2021-05-27T06:17:18Z</time>
      </trkpt>
      <trkpt lat="43.3655" lon="2.49552">
        <ele>746.88</ele>
        <time>2021-05-27T06:18:32Z</time>
      </trkpt>
      <trkpt lat="43.36569" lon="2.49544">
        <ele>745.78</ele>
        <time>2021-05-27T06:19:49Z</time>
      </trkpt>
      <trkpt lat="43.36587" lon="2.49536">
        <ele>737.13</ele>
        <time>2021-05-27T06:20:05Z</time>
      </trkpt>
      <trkpt lat="43.3661" lon="2.49522">
        <ele>726.85</ele>
        <time>2021-05-27T06:20:21Z</time>
      </trkpt>
      <trkpt lat="43.36632" lon="2.49515">
        <ele>720.93</ele>
        <time>2021-05-27T06:20:32Z</time>
      </trkpt>
      <trkpt lat="43.36653" lon="2.49507">
        <ele>716.37</ele>
        <time>2021-05-27T06:20:42Z</time>
      </trkpt>
      <trkpt lat="43.36681" lon="2.49494">
        <ele>703.55</ele>
        <time>2021-05-27T06:21:06Z</time>
      </trkpt>
      <trkpt lat="43.36699" lon="2.49482">
        <ele>698.8</ele>
        <time>2021-05-27T06:21:14Z</time>
      </trkpt>
      <trkpt lat="43.36715" lon="2.49476">
        <ele>694.45</ele>
        <time>2021-05-27T06:21:22Z</time>
      </trkpt>
      <trkpt lat="43.36743" lon="2.49437">
        <ele>683.97</ele>
        <time>2021-05-27T06:21:42Z</time>
      </trkpt>
      <trkpt lat="43.36775" lon="2.49415">
        <ele>675.98</ele>
        <time>2021-05-27T06:21:54Z</time>
      </trkpt>
      <trkpt lat="43.36798" lon="2.49399">
        <ele>669.13</ele>
        <time>2021-05-27T06:22:04Z</time>
      </trkpt>
      <trkpt lat="43.36835" lon="2.49392">
        <ele>658.56</ele>
        <time>2021-05-27T06:22:24Z</time>
      </trkpt>
      <trkpt lat="43.36875" lon="2.49399">
        <ele>652.66</ele>
        <time>2021-05-27T06:22:39Z</time>
      </trkpt>
      <trkpt lat="43.36912" lon="2.49391">
        <ele>647.66</ele>
        <time>2021-05-27T06:22:53Z</time>
      </trkpt>
      <trkpt lat="43.36938" lon="2.49368">
        <ele>646.01</ele>
        <time>2021-05-27T06:23:04Z</time>
      </trkpt>
      <trkpt lat="43.36967" lon="2.49358">
        <ele>646.15</ele>
        <time>2021-05-27T06:23:16Z</time>
      </trkpt>
      <trkpt lat="43.36994" lon="2.4934">
        <ele>647.97</ele>
        <time>2021-05-27T06:23:30Z</time>
      </trkpt>
      <trkpt lat="43.37016" lon="2.49327">
        <ele>649.02</ele>
        <time>2021-05-27T06:23:40Z</time>
      </trkpt>
      <trkpt lat="43.37035" lon="2.49313">
        <ele>648.36</ele>
        <time>2021-05-27T06:23:50Z</time>
      </trkpt>
      <trkpt lat="43.37056" lon="2.49304">
        <ele>647.31</ele>
        <time>2021-05-27T06:23:59Z</time>
      </trkpt>
      <trkpt lat="43.37081" lon="2.49303">
        <ele>646.15</ele>
        <time>2021-05-27T06:24:09Z</time>
      </trkpt>
      <trkpt lat="43.37105" lon="2.49315">
        <ele>644.74</ele>
        <time>2021-05-27T06:24:18Z</time>
      </trkpt>
      <trkpt lat="43.37125" lon="2.49323">
        <ele>643.62</ele>
        <time>2021-05-27T06:24:26Z</time>
      </trkpt>
      <trkpt lat="43.37145" lon="2.49336">
        <ele>642.33</ele>
        <time>2021-05-27T06:24:36Z</time>
      </trkpt>
      <trkpt lat="43.37164" lon="2.49366">
        <ele>641.83</ele>
        <time>2021-05-27T06:24:46Z</time>
      </trkpt>
      <trkpt lat="43.37182" lon="2.49396">
        <ele>641.41</ele>
        <time>2021-05-27T06:24:57Z</time>
      </trkpt>
      <trkpt lat="43.372" lon="2.49425">
        <ele>641.55</ele>
        <time>2021-05-27T06:25:05Z</time>
      </trkpt>
      <trkpt lat="43.3722" lon="2.49427">
        <ele>641.82</ele>
        <time>2021-05-27T06:25:13Z</time>
      </trkpt>
      <trkpt lat="43.37242" lon="2.49421">
        <ele>642.56</ele>
        <time>2021-05-27T06:25:23Z</time>
      </trkpt>
      <trkpt lat="43.37267" lon="2.49417">
        <ele>643.18</ele>
        <time>2021-05-27T06:25:32Z</time>
      </trkpt>
      <trkpt lat="43.3729" lon="2.4941">
        <ele>644.28</ele>
        <time>2021-05-27T06:25:41Z</time>
      </trkpt>
      <trkpt lat="43.37312" lon="2.49401">
        <ele>645.57</ele>
        <time>2021-05-27T06:25:51Z</time>
      </trkpt>
      <trkpt lat="43.37332" lon="2.49391">
        <ele>646.55</ele>
        <time>2021-05-27T06:26:00Z</time>
      </trkpt>
      <trkpt lat="43.37354" lon="2.49377">
        <ele>647.55</ele>
        <time>2021-05-27T06:26:10Z</time>
      </trkpt>
      <trkpt lat="43.37381" lon="2.4936">
        <ele>649.28</ele>
        <time>2021-05-27T06:26:26Z</time>
      </trkpt>
      <trkpt lat="43.37428" lon="2.49342">
        <ele>652.18</ele>
        <time>2021-05-27T06:26:48Z</time>
      </trkpt>
      <trkpt lat="43.37461" lon="2.49339">
        <ele>653.05</ele>
        <time>2021-05-27T06:27:00Z</time>
      </trkpt>
      <trkpt lat="43.37453" lon="2.49373">
        <ele>654.03</ele>
        <time>2021-05-27T06:27:21Z</time>
      </trkpt>
      <trkpt lat="43.37445" lon="2.49384">
        <ele>654.81</ele>
        <time>2021-05-27T06:27:28Z</time>
      </trkpt>
      <trkpt lat="43.37424" lon="2.49413">
        <ele>655.31</ele>
        <time>2021-05-27T06:27:39Z</time>
      </trkpt>
      <trkpt lat="43.37399" lon="2.49443">
        <ele>656.59</ele>
        <time>2021-05-27T06:27:52Z</time>
      </trkpt>
      <trkpt lat="43.37374" lon="2.49464">
        <ele>657.84</ele>
        <time>2021-05-27T06:28:03Z</time>
      </trkpt>
      <trkpt lat="43.37359" lon="2.4949">
        <ele>658.82</ele>
        <time>2021-05-27T06:28:14Z</time>
      </trkpt>
      <trkpt lat="43.37331" lon="2.49539">
        <ele>660.42</ele>
        <time>2021-05-27T06:28:34Z</time>
      </trkpt>
      <trkpt lat="43.37315" lon="2.49565">
        <ele>661.52</ele>
        <time>2021-05-27T06:28:44Z</time>
      </trkpt>
      <trkpt lat="43.3731" lon="2.49599">
        <ele>662.74</ele>
        <time>2021-05-27T06:28:54Z</time>
      </trkpt>
      <trkpt lat="43.37311" lon="2.49632">
        <ele>663.75</ele>
        <time>2021-05-27T06:29:04Z</time>
      </trkpt>
      <trkpt lat="43.37315" lon="2.49662">
        <ele>664.69</ele>
        <time>2021-05-27T06:29:13Z</time>
      </trkpt>
      <trkpt lat="43.37319" lon="2.49693">
        <ele>665.51</ele>
        <time>2021-05-27T06:29:22Z</time>
      </trkpt>
      <trkpt lat="43.37324" lon="2.49724">
        <ele>666.62</ele>
        <time>2021-05-27T06:29:32Z</time>
      </trkpt>
      <trkpt lat="43.37332" lon="2.4975">
        <ele>667.48</ele>
        <time>2021-05-27T06:29:43Z</time>
      </trkpt>
      <trkpt lat="43.37342" lon="2.49787">
        <ele>668.85</ele>
        <time>2021-05-27T06:29:57Z</time>
      </trkpt>
      <trkpt lat="43.3735" lon="2.49827">
        <ele>669.63</ele>
        <time>2021-05-27T06:30:07Z</time>
      </trkpt>
      <trkpt lat="43.37349" lon="2.49865">
        <ele>670.52</ele>
        <time>2021-05-27T06:30:18Z</time>
      </trkpt>
      <trkpt lat="43.37344" lon="2.49902">
        <ele>671.66</ele>
        <time>2021-05-27T06:30:29Z</time>
      </trkpt>
      <trkpt lat="43.37343" lon="2.49937">
        <ele>672.17</ele>
        <time>2021-05-27T06:30:40Z</time>
      </trkpt>
      <trkpt lat="43.37339" lon="2.49974">
        <ele>672.66</ele>
        <time>2021-05-27T06:30:50Z</time>
      </trkpt>
      <trkpt lat="43.37334" lon="2.50008">
        <ele>673.19</ele>
        <time>2021-05-27T06:31:00Z</time>
      </trkpt>
      <trkpt lat="43.37328" lon="2.50041">
        <ele>673.99</ele>
        <time>2021-05-27T06:31:09Z</time>
      </trkpt>
      <trkpt lat="43.3732" lon="2.50068">
        <ele>674.62</ele>
        <time>2021-05-27T06:31:18Z</time>
      </trkpt>
      <trkpt lat="43.37319" lon="2.501">
        <ele>675.42</ele>
        <time>2021-05-27T06:31:27Z</time>
      </trkpt>
      <trkpt lat="43.37319" lon="2.50134">
        <ele>675.79</ele>
        <time>2021-05-27T06:31:37Z</time>
      </trkpt>
      <trkpt lat="43.37323" lon="2.50164">
        <ele>676.6</ele>
        <time>2021-05-27T06:31:47Z</time>
      </trkpt>
      <trkpt lat="43.37326" lon="2.50198">
        <ele>677.3</ele>
        <time>2021-05-27T06:31:57Z</time>
      </trkpt>
      <trkpt lat="43.37331" lon="2.50227">
        <ele>678.02</ele>
        <time>2021-05-27T06:32:06Z</time>
      </trkpt>
      <trkpt lat="43.37336" lon="2.50258">
        <ele>678.74</ele>
        <time>2021-05-27T06:32:15Z</time>
      </trkpt>
      <trkpt lat="43.37343" lon="2.50289">
        <ele>679.88</ele>
        <time>2021-05-27T06:32:26Z</time>
      </trkpt>
      <trkpt lat="43.37348" lon="2.50323">
        <ele>680.78</ele>
        <time>2021-05-27T06:32:36Z</time>
      </trkpt>
      <trkpt lat="43.37348" lon="2.50355">
        <ele>681.5</ele>
        <time>2021-05-27T06:32:44Z</time>
      </trkpt>
      <trkpt lat="43.37347" lon="2.50386">
        <ele>682.15</ele>
        <time>2021-05-27T06:32:53Z</time>
      </trkpt>
      <trkpt lat="43.37346" lon="2.50417">
        <ele>682.76</ele>
        <time>2021-05-27T06:33:01Z</time>
      </trkpt>
      <trkpt lat="43.37347" lon="2.50445">
        <ele>683.61</ele>
        <time>2021-05-27T06:33:09Z</time>
      </trkpt>
      <trkpt lat="43.37348" lon="2.50475">
        <ele>684.56</ele>
        <time>2021-05-27T06:33:18Z</time>
      </trkpt>
      <trkpt lat="43.37351" lon="2.50506">
        <ele>684.59</ele>
        <time>2021-05-27T06:33:28Z</time>
      </trkpt>
      <trkpt lat="43.3735" lon="2.50516">
        <ele>684.56</ele>
        <time>2021-05-27T06:33:32Z</time>
      </trkpt>
      <trkpt lat="43.3735" lon="2.50539">
        <ele>684.34</ele>
        <time>2021-05-27T06:33:39Z</time>
      </trkpt>
      <trkpt lat="43.3735" lon="2.50572">
        <ele>683.62</ele>
        <time>2021-05-27T06:33:47Z</time>
      </trkpt>
      <trkpt lat="43.3735" lon="2.506">
        <ele>682.38</ele>
        <time>2021-05-27T06:33:55Z</time>
      </trkpt>
      <trkpt lat="43.37354" lon="2.50628">
        <ele>681.36</ele>
        <time>2021-05-27T06:34:03Z</time>
      </trkpt>
      <trkpt lat="43.37358" lon="2.50656">
        <ele>680.42</ele>
        <time>2021-05-27T06:34:12Z</time>
      </trkpt>
      <trkpt lat="43.37365" lon="2.50685">
        <ele>679.47</ele>
        <time>2021-05-27T06:34:21Z</time>
      </trkpt>
      <trkpt lat="43.3737" lon="2.50717">
        <ele>678.15</ele>
        <time>2021-05-27T06:34:31Z</time>
      </trkpt>
      <trkpt lat="43.37374" lon="2.50751">
        <ele>676.83</ele>
        <time>2021-05-27T06:34:41Z</time>
      </trkpt>
      <trkpt lat="43.37378" lon="2.50785">
        <ele>675.25</ele>
        <time>2021-05-27T06:34:51Z</time>
      </trkpt>
      <trkpt lat="43.37384" lon="2.50822">
        <ele>673.79</ele>
        <time>2021-05-27T06:35:01Z</time>
      </trkpt>
      <trkpt lat="43.374" lon="2.5086">
        <ele>672.08</ele>
        <time>2021-05-27T06:35:14Z</time>
      </trkpt>
      <trkpt lat="43.37412" lon="2.50894">
        <ele>669.99</ele>
        <time>2021-05-27T06:35:25Z</time>
      </trkpt>
      <trkpt lat="43.37417" lon="2.50941">
        <ele>668.68</ele>
        <time>2021-05-27T06:35:43Z</time>
      </trkpt>
      <trkpt lat="43.37437" lon="2.50944">
        <ele>668.95</ele>
        <time>2021-05-27T06:36:05Z</time>
      </trkpt>
      <trkpt lat="43.37451" lon="2.50943">
        <ele>670.1</ele>
        <time>2021-05-27T06:36:27Z</time>
      </trkpt>
      <trkpt lat="43.37461" lon="2.50957">
        <ele>671.72</ele>
        <time>2021-05-27T06:36:48Z</time>
      </trkpt>
      <trkpt lat="43.37446" lon="2.50941">
        <ele>671.17</ele>
        <time>2021-05-27T06:37:10Z</time>
      </trkpt>
      <trkpt lat="43.37427" lon="2.50951">
        <ele>669.71</ele>
        <time>2021-05-27T06:37:20Z</time>
      </trkpt>
      <trkpt lat="43.37412" lon="2.50973">
        <ele>668.14</ele>
        <time>2021-05-27T06:37:30Z</time>
      </trkpt>
      <trkpt lat="43.37401" lon="2.51001">
        <ele>667.68</ele>
        <time>2021-05-27T06:37:38Z</time>
      </trkpt>
      <trkpt lat="43.3739" lon="2.51029">
        <ele>666.74</ele>
        <time>2021-05-27T06:37:50Z</time>
      </trkpt>
      <trkpt lat="43.37377" lon="2.51069">
        <ele>664.14</ele>
        <time>2021-05-27T06:38:04Z</time>
      </trkpt>
      <trkpt lat="43.37366" lon="2.51112">
        <ele>662.02</ele>
        <time>2021-05-27T06:38:15Z</time>
      </trkpt>
      <trkpt lat="43.37357" lon="2.51146">
        <ele>660.32</ele>
        <time>2021-05-27T06:38:25Z</time>
      </trkpt>
      <trkpt lat="43.37343" lon="2.51184">
        <ele>658.43</ele>
        <time>2021-05-27T06:38:35Z</time>
      </trkpt>
      <trkpt lat="43.37322" lon="2.51237">
        <ele>655.36</ele>
        <time>2021-05-27T06:38:50Z</time>
      </trkpt>
      <trkpt lat="43.37309" lon="2.5127">
        <ele>653.86</ele>
        <time>2021-05-27T06:39:01Z</time>
      </trkpt>
      <trkpt lat="43.37298" lon="2.51312">
        <ele>653.04</ele>
        <time>2021-05-27T06:39:09Z</time>
      </trkpt>
      <trkpt lat="43.37279" lon="2.51342">
        <ele>652.42</ele>
        <time>2021-05-27T06:39:18Z</time>
      </trkpt>
      <trkpt lat="43.37263" lon="2.51364">
        <ele>651.76</ele>
        <time>2021-05-27T06:39:27Z</time>
      </trkpt>
      <trkpt lat="43.37246" lon="2.51391">
        <ele>651.32</ele>
        <time>2021-05-27T06:39:38Z</time>
      </trkpt>
      <trkpt lat="43.37222" lon="2.51425">
        <ele>650.76</ele>
        <time>2021-05-27T06:39:54Z</time>
      </trkpt>
      <trkpt lat="43.372" lon="2.5145">
        <ele>650.39</ele>
        <time>2021-05-27T06:40:02Z</time>
      </trkpt>
      <trkpt lat="43.37186" lon="2.51473">
        <ele>650.18</ele>
        <time>2021-05-27T06:40:09Z</time>
      </trkpt>
      <trkpt lat="43.37182" lon="2.51477">
        <ele>650.03</ele>
        <time>2021-05-27T06:40:11Z</time>
      </trkpt>
      <trkpt lat="43.37172" lon="2.51508">
        <ele>648.69</ele>
        <time>2021-05-27T06:40:19Z</time>
      </trkpt>
      <trkpt lat="43.3717" lon="2.51537">
        <ele>647.13</ele>
        <time>2021-05-27T06:40:28Z</time>
      </trkpt>
      <trkpt lat="43.37175" lon="2.51569">
        <ele>646.34</ele>
        <time>2021-05-27T06:40:37Z</time>
      </trkpt>
      <trkpt lat="43.3718" lon="2.51601">
        <ele>645.45</ele>
        <time>2021-05-27T06:40:46Z</time>
      </trkpt>
      <trkpt lat="43.37184" lon="2.51635">
        <ele>644.68</ele>
        <time>2021-05-27T06:40:55Z</time>
      </trkpt>
      <trkpt lat="43.37191" lon="2.5167">
        <ele>643.85</ele>
        <time>2021-05-27T06:41:04Z</time>
      </trkpt>
      <trkpt lat="43.37196" lon="2.51704">
        <ele>642.71</ele>
        <time>2021-05-27T06:41:13Z</time>
      </trkpt>
      <trkpt lat="43.37222" lon="2.51742">
        <ele>637.61</ele>
        <time>2021-05-27T06:41:29Z</time>
      </trkpt>
      <trkpt lat="43.37237" lon="2.51757">
        <ele>634.72</ele>
        <time>2021-05-27T06:41:39Z</time>
      </trkpt>
      <trkpt lat="43.37248" lon="2.51777">
        <ele>630.64</ele>
        <time>2021-05-27T06:41:52Z</time>
      </trkpt>
      <trkpt lat="43.37268" lon="2.51802">
        <ele>622.03</ele>
        <time>2021-05-27T06:42:09Z</time>
      </trkpt>
      <trkpt lat="43.37291" lon="2.51807">
        <ele>615.56</ele>
        <time>2021-05-27T06:42:24Z</time>
      </trkpt>
      <trkpt lat="43.37312" lon="2.51817">
        <ele>606.23</ele>
        <time>2021-05-27T06:42:49Z</time>
      </trkpt>
      <trkpt lat="43.37321" lon="2.51857">
        <ele>600.29</ele>
        <time>2021-05-27T06:43:11Z</time>
      </trkpt>
      <trkpt lat="43.37314" lon="2.51907">
        <ele>592.83</ele>
        <time>2021-05-27T06:43:38Z</time>
      </trkpt>
      <trkpt lat="43.3729" lon="2.51956">
        <ele>582.09</ele>
        <time>2021-05-27T06:44:04Z</time>
      </trkpt>
      <trkpt lat="43.37276" lon="2.52007">
        <ele>574.02</ele>
        <time>2021-05-27T06:44:30Z</time>
      </trkpt>
      <trkpt lat="43.37263" lon="2.52052">
        <ele>557.22</ele>
        <time>2021-05-27T06:45:01Z</time>
      </trkpt>
      <trkpt lat="43.37272" lon="2.52092">
        <ele>542.01</ele>
        <time>2021-05-27T06:45:31Z</time>
      </trkpt>
      <trkpt lat="43.37277" lon="2.52131">
        <ele>528</ele>
        <time>2021-05-27T06:45:56Z</time>
      </trkpt>
      <trkpt lat="43.37282" lon="2.52167">
        <ele>517.65</ele>
        <time>2021-05-27T06:46:19Z</time>
      </trkpt>
      <trkpt lat="43.37284" lon="2.52196">
        <ele>506.12</ele>
        <time>2021-05-27T06:46:44Z</time>
      </trkpt>
      <trkpt lat="43.3727" lon="2.52244">
        <ele>505.46</ele>
        <time>2021-05-27T06:47:07Z</time>
      </trkpt>
      <trkpt lat="43.37274" lon="2.52267">
        <ele>505.49</ele>
        <time>2021-05-27T06:47:45Z</time>
      </trkpt>
      <trkpt lat="43.37266" lon="2.52294">
        <ele>502.99</ele>
        <time>2021-05-27T06:48:14Z</time>
      </trkpt>
      <trkpt lat="43.37281" lon="2.52317">
        <ele>498.48</ele>
        <time>2021-05-27T06:48:36Z</time>
      </trkpt>
      <trkpt lat="43.37315" lon="2.52319">
        <ele>494.25</ele>
        <time>2021-05-27T06:48:52Z</time>
      </trkpt>
      <trkpt lat="43.37344" lon="2.52337">
        <ele>490.88</ele>
        <time>2021-05-27T06:49:05Z</time>
      </trkpt>
      <trkpt lat="43.37368" lon="2.52343">
        <ele>487</ele>
        <time>2021-05-27T06:49:15Z</time>
      </trkpt>
      <trkpt lat="43.37389" lon="2.52341">
        <ele>483.85</ele>
        <time>2021-05-27T06:49:24Z</time>
      </trkpt>
      <trkpt lat="43.37419" lon="2.52347">
        <ele>475.24</ele>
        <time>2021-05-27T06:49:43Z</time>
      </trkpt>
      <trkpt lat="43.37454" lon="2.52353">
        <ele>469.95</ele>
        <time>2021-05-27T06:49:58Z</time>
      </trkpt>
      <trkpt lat="43.37474" lon="2.52348">
        <ele>465.44</ele>
        <time>2021-05-27T06:50:10Z</time>
      </trkpt>
      <trkpt lat="43.37476" lon="2.52371">
        <ele>462.99</ele>
        <time>2021-05-27T06:50:21Z</time>
      </trkpt>
      <trkpt lat="43.37493" lon="2.52372">
        <ele>455.91</ele>
        <time>2021-05-27T06:50:44Z</time>
      </trkpt>
      <trkpt lat="43.375" lon="2.52366">
        <ele>445.27</ele>
        <time>2021-05-27T06:51:10Z</time>
      </trkpt>
      <trkpt lat="43.37514" lon="2.52395">
        <ele>438.1</ele>
        <time>2021-05-27T06:51:25Z</time>
      </trkpt>
      <trkpt lat="43.37533" lon="2.52425">
        <ele>432.21</ele>
        <time>2021-05-27T06:51:41Z</time>
      </trkpt>
      <trkpt lat="43.37546" lon="2.52467">
        <ele>425.98</ele>
        <time>2021-05-27T06:51:56Z</time>
      </trkpt>
      <trkpt lat="43.3757" lon="2.52492">
        <ele>414.73</ele>
        <time>2021-05-27T06:52:17Z</time>
      </trkpt>
      <trkpt lat="43.37589" lon="2.52509">
        <ele>408.46</ele>
        <time>2021-05-27T06:52:31Z</time>
      </trkpt>
      <trkpt lat="43.37593" lon="2.52536">
        <ele>402.46</ele>
        <time>2021-05-27T06:52:44Z</time>
      </trkpt>
      <trkpt lat="43.376" lon="2.52573">
        <ele>395.08</ele>
        <time>2021-05-27T06:53:06Z</time>
      </trkpt>
      <trkpt lat="43.376" lon="2.52609">
        <ele>391.57</ele>
        <time>2021-05-27T06:53:24Z</time>
      </trkpt>
      <trkpt lat="43.37596" lon="2.52656">
        <ele>387.33</ele>
        <time>2021-05-27T06:53:39Z</time>
      </trkpt>
      <trkpt lat="43.37585" lon="2.52707">
        <ele>382.39</ele>
        <time>2021-05-27T06:53:58Z</time>
      </trkpt>
      <trkpt lat="43.37583" lon="2.52765">
        <ele>376.03</ele>
        <time>2021-05-27T06:54:17Z</time>
      </trkpt>
      <trkpt lat="43.37569" lon="2.5281">
        <ele>371</ele>
        <time>2021-05-27T06:54:36Z</time>
      </trkpt>
      <trkpt lat="43.37556" lon="2.52866">
        <ele>367.16</ele>
        <time>2021-05-27T06:54:56Z</time>
      </trkpt>
      <trkpt lat="43.3754" lon="2.52913">
        <ele>365.53</ele>
        <time>2021-05-27T06:55:09Z</time>
      </trkpt>
      <trkpt lat="43.37523" lon="2.52954">
        <ele>363.65</ele>
        <time>2021-05-27T06:55:21Z</time>
      </trkpt>
      <trkpt lat="43.3749" lon="2.53009">
        <ele>361.39</ele>
        <time>2021-05-27T06:55:44Z</time>
      </trkpt>
      <trkpt lat="43.37457" lon="2.5305">
        <ele>360.49</ele>
        <time>2021-05-27T06:56:03Z</time>
      </trkpt>
      <trkpt lat="43.37433" lon="2.53092">
        <ele>359.93</ele>
        <time>2021-05-27T06:56:30Z</time>
      </trkpt>
      <trkpt lat="43.37428" lon="2.53117">
        <ele>358.96</ele>
        <time>2021-05-27T06:56:52Z</time>
      </trkpt>
      <trkpt lat="43.37435" lon="2.53129">
        <ele>358.07</ele>
        <time>2021-05-27T06:57:03Z</time>
      </trkpt>
      <trkpt lat="43.37442" lon="2.53138">
        <ele>357.61</ele>
        <time>2021-05-27T06:57:11Z</time>
      </trkpt>
      <trkpt lat="43.37458" lon="2.53154">
        <ele>355.93</ele>
        <time>2021-05-27T06:57:21Z</time>
      </trkpt>
      <trkpt lat="43.37469" lon="2.53169">
        <ele>354.6</ele>
        <time>2021-05-27T06:57:38Z</time>
      </trkpt>
      <trkpt lat="43.37473" lon="2.53192">
        <ele>354.07</ele>
        <time>2021-05-27T06:57:56Z</time>
      </trkpt>
      <trkpt lat="43.3749" lon="2.53202">
        <ele>353.78</ele>
        <time>2021-05-27T06:58:26Z</time>
      </trkpt>
      <trkpt lat="43.37507" lon="2.5321">
        <ele>354.31</ele>
        <time>2021-05-27T06:58:35Z</time>
      </trkpt>
      <trkpt lat="43.37526" lon="2.53217">
        <ele>355.34</ele>
        <time>2021-05-27T06:58:45Z</time>
      </trkpt>
      <trkpt lat="43.37546" lon="2.53225">
        <ele>359.71</ele>
        <time>2021-05-27T06:59:05Z</time>
      </trkpt>
      <trkpt lat="43.37575" lon="2.53247">
        <ele>367.69</ele>
        <time>2021-05-27T06:59:33Z</time>
      </trkpt>
      <trkpt lat="43.37577" lon="2.53259">
        <ele>372.62</ele>
        <time>2021-05-27T06:59:57Z</time>
      </trkpt>
      <trkpt lat="43.37581" lon="2.53281">
        <ele>379.76</ele>
        <time>2021-05-27T07:00:25Z</time>
      </trkpt>
      <trkpt lat="43.37593" lon="2.53301">
        <ele>386.5</ele>
        <time>2021-05-27T07:00:48Z</time>
      </trkpt>
      <trkpt lat="43.37592" lon="2.53324">
        <ele>393.83</ele>
        <time>2021-05-27T07:01:14Z</time>
      </trkpt>
      <trkpt lat="43.37582" lon="2.5334">
        <ele>399.88</ele>
        <time>2021-05-27T07:01:36Z</time>
      </trkpt>
      <trkpt lat="43.3757" lon="2.53365">
        <ele>407.43</ele>
        <time>2021-05-27T07:02:03Z</time>
      </trkpt>
      <trkpt lat="43.37577" lon="2.53397">
        <ele>416.8</ele>
        <time>2021-05-27T07:02:33Z</time>
      </trkpt>
      <trkpt lat="43.37598" lon="2.53408">
        <ele>424.4</ele>
        <time>2021-05-27T07:03:01Z</time>
      </trkpt>
      <trkpt lat="43.37614" lon="2.53427">
        <ele>432.02</ele>
        <time>2021-05-27T07:03:30Z</time>
      </trkpt>
      <trkpt lat="43.37628" lon="2.53444">
        <ele>442.31</ele>
        <time>2021-05-27T07:04:05Z</time>
      </trkpt>
      <trkpt lat="43.37643" lon="2.53469">
        <ele>453.46</ele>
        <time>2021-05-27T07:04:43Z</time>
      </trkpt>
      <trkpt lat="43.37642" lon="2.53479">
        <ele>457.4</ele>
        <time>2021-05-27T07:05:18Z</time>
      </trkpt>
      <trkpt lat="43.37643" lon="2.53491">
        <ele>462.74</ele>
        <time>2021-05-27T07:06:01Z</time>
      </trkpt>
      <trkpt lat="43.37646" lon="2.53518">
        <ele>472.32</ele>
        <time>2021-05-27T07:06:33Z</time>
      </trkpt>
      <trkpt lat="43.37662" lon="2.53537">
        <ele>480.7</ele>
        <time>2021-05-27T07:07:03Z</time>
      </trkpt>
      <trkpt lat="43.37678" lon="2.53555">
        <ele>485.72</ele>
        <time>2021-05-27T07:07:27Z</time>
      </trkpt>
      <trkpt lat="43.37706" lon="2.53558">
        <ele>486.77</ele>
        <time>2021-05-27T07:07:56Z</time>
      </trkpt>
      <trkpt lat="43.37741" lon="2.53538">
        <ele>491.07</ele>
        <time>2021-05-27T07:08:21Z</time>
      </trkpt>
      <trkpt lat="43.37765" lon="2.53527">
        <ele>485.44</ele>
        <time>2021-05-27T07:08:48Z</time>
      </trkpt>
      <trkpt lat="43.37804" lon="2.53533">
        <ele>489.84</ele>
        <time>2021-05-27T07:09:12Z</time>
      </trkpt>
      <trkpt lat="43.37804" lon="2.53564">
        <ele>490.42</ele>
        <time>2021-05-27T07:09:41Z</time>
      </trkpt>
      <trkpt lat="43.37782" lon="2.53554">
        <ele>489.46</ele>
        <time>2021-05-27T07:10:53Z</time>
      </trkpt>
      <trkpt lat="43.37769" lon="2.53556">
        <ele>487.8</ele>
        <time>2021-05-27T07:11:45Z</time>
      </trkpt>
      <trkpt lat="43.37742" lon="2.53585">
        <ele>472.07</ele>
        <time>2021-05-27T07:12:16Z</time>
      </trkpt>
      <trkpt lat="43.3772" lon="2.53636">
        <ele>454.2</ele>
        <time>2021-05-27T07:12:43Z</time>
      </trkpt>
      <trkpt lat="43.37699" lon="2.53673">
        <ele>441.92</ele>
        <time>2021-05-27T07:13:04Z</time>
      </trkpt>
      <trkpt lat="43.37688" lon="2.53689">
        <ele>437.98</ele>
        <time>2021-05-27T07:13:12Z</time>
      </trkpt>
      <trkpt lat="43.37657" lon="2.53738">
        <ele>423.62</ele>
        <time>2021-05-27T07:13:38Z</time>
      </trkpt>
      <trkpt lat="43.37639" lon="2.53791">
        <ele>413.21</ele>
        <time>2021-05-27T07:13:58Z</time>
      </trkpt>
      <trkpt lat="43.37616" lon="2.53823">
        <ele>400.33</ele>
        <time>2021-05-27T07:14:23Z</time>
      </trkpt>
      <trkpt lat="43.37591" lon="2.53869">
        <ele>390.23</ele>
        <time>2021-05-27T07:14:43Z</time>
      </trkpt>
      <trkpt lat="43.3757" lon="2.53921">
        <ele>375.1</ele>
        <time>2021-05-27T07:15:14Z</time>
      </trkpt>
      <trkpt lat="43.37542" lon="2.53943">
        <ele>369.73</ele>
        <time>2021-05-27T07:15:39Z</time>
      </trkpt>
      <trkpt lat="43.37497" lon="2.53965">
        <ele>359.69</ele>
        <time>2021-05-27T07:16:03Z</time>
      </trkpt>
      <trkpt lat="43.37464" lon="2.53949">
        <ele>359.86</ele>
        <time>2021-05-27T07:16:25Z</time>
      </trkpt>
      <trkpt lat="43.37429" lon="2.53917">
        <ele>354.54</ele>
        <time>2021-05-27T07:16:48Z</time>
      </trkpt>
      <trkpt lat="43.37392" lon="2.53906">
        <ele>347.5</ele>
        <time>2021-05-27T07:17:04Z</time>
      </trkpt>
      <trkpt lat="43.37383" lon="2.5391">
        <ele>339.26</ele>
        <time>2021-05-27T07:17:21Z</time>
      </trkpt>
      <trkpt lat="43.37379" lon="2.53934">
        <ele>333.72</ele>
        <time>2021-05-27T07:17:34Z</time>
      </trkpt>
      <trkpt lat="43.37372" lon="2.53948">
        <ele>325.64</ele>
        <time>2021-05-27T07:17:53Z</time>
      </trkpt>
      <trkpt lat="43.37363" lon="2.53991">
        <ele>320.08</ele>
        <time>2021-05-27T07:18:15Z</time>
      </trkpt>
      <trkpt lat="43.37387" lon="2.54015">
        <ele>320.09</ele>
        <time>2021-05-27T07:18:30Z</time>
      </trkpt>
      <trkpt lat="43.37405" lon="2.54028">
        <ele>319.99</ele>
        <time>2021-05-27T07:18:42Z</time>
      </trkpt>
      <trkpt lat="43.37425" lon="2.54052">
        <ele>320.52</ele>
        <time>2021-05-27T07:18:54Z</time>
      </trkpt>
      <trkpt lat="43.37443" lon="2.54087">
        <ele>322.01</ele>
        <time>2021-05-27T07:19:08Z</time>
      </trkpt>
      <trkpt lat="43.37467" lon="2.54112">
        <ele>322.79</ele>
        <time>2021-05-27T07:19:19Z</time>
      </trkpt>
      <trkpt lat="43.37489" lon="2.54118">
        <ele>323.69</ele>
        <time>2021-05-27T07:19:30Z</time>
      </trkpt>
      <trkpt lat="43.37509" lon="2.54128">
        <ele>325.23</ele>
        <time>2021-05-27T07:19:41Z</time>
      </trkpt>
      <trkpt lat="43.37536" lon="2.54138">
        <ele>327.14</ele>
        <time>2021-05-27T07:20:00Z</time>
      </trkpt>
      <trkpt lat="43.37575" lon="2.54148">
        <ele>327.44</ele>
        <time>2021-05-27T07:20:28Z</time>
      </trkpt>
      <trkpt lat="43.37642" lon="2.54133">
        <ele>330.61</ele>
        <time>2021-05-27T07:21:01Z</time>
      </trkpt>
      <trkpt lat="43.37678" lon="2.54035">
        <ele>333.72</ele>
        <time>2021-05-27T07:21:32Z</time>
      </trkpt>
      <trkpt lat="43.37764" lon="2.54028">
        <ele>345.63</ele>
        <time>2021-05-27T07:22:44Z</time>
      </trkpt>
      <trkpt lat="43.37778" lon="2.54033">
        <ele>350.36</ele>
        <time>2021-05-27T07:23:08Z</time>
      </trkpt>
      <trkpt lat="43.37758" lon="2.54075">
        <ele>351.68</ele>
        <time>2021-05-27T07:23:29Z</time>
      </trkpt>
      <trkpt lat="43.37753" lon="2.54094">
        <ele>352.84</ele>
        <time>2021-05-27T07:24:19Z</time>
      </trkpt>
      <trkpt lat="43.37736" lon="2.54113">
        <ele>354.04</ele>
        <time>2021-05-27T07:24:51Z</time>
      </trkpt>
      <trkpt lat="43.37719" lon="2.54134">
        <ele>354.97</ele>
        <time>2021-05-27T07:25:03Z</time>
      </trkpt>
      <trkpt lat="43.37702" lon="2.54153">
        <ele>355.42</ele>
        <time>2021-05-27T07:25:12Z</time>
      </trkpt>
      <trkpt lat="43.37685" lon="2.5417">
        <ele>356.25</ele>
        <time>2021-05-27T07:25:21Z</time>
      </trkpt>
      <trkpt lat="43.37666" lon="2.54186">
        <ele>357.3</ele>
        <time>2021-05-27T07:25:31Z</time>
      </trkpt>
      <trkpt lat="43.37638" lon="2.54214">
        <ele>360.02</ele>
        <time>2021-05-27T07:25:50Z</time>
      </trkpt>
      <trkpt lat="43.37601" lon="2.54243">
        <ele>363.2</ele>
        <time>2021-05-27T07:26:11Z</time>
      </trkpt>
      <trkpt lat="43.37564" lon="2.54268">
        <ele>365.98</ele>
        <time>2021-05-27T07:26:29Z</time>
      </trkpt>
      <trkpt lat="43.37541" lon="2.54272">
        <ele>366.81</ele>
        <time>2021-05-27T07:26:39Z</time>
      </trkpt>
      <trkpt lat="43.37514" lon="2.54265">
        <ele>368.03</ele>
        <time>2021-05-27T07:26:51Z</time>
      </trkpt>
      <trkpt lat="43.37489" lon="2.5426">
        <ele>369.6</ele>
        <time>2021-05-27T07:27:02Z</time>
      </trkpt>
      <trkpt lat="43.37468" lon="2.54254">
        <ele>370.4</ele>
        <time>2021-05-27T07:27:10Z</time>
      </trkpt>
      <trkpt lat="43.37447" lon="2.54252">
        <ele>371.03</ele>
        <time>2021-05-27T07:27:20Z</time>
      </trkpt>
      <trkpt lat="43.37424" lon="2.54244">
        <ele>371.89</ele>
        <time>2021-05-27T07:27:31Z</time>
      </trkpt>
      <trkpt lat="43.374" lon="2.54237">
        <ele>372.67</ele>
        <time>2021-05-27T07:27:40Z</time>
      </trkpt>
      <trkpt lat="43.37378" lon="2.54234">
        <ele>373.42</ele>
        <time>2021-05-27T07:27:50Z</time>
      </trkpt>
      <trkpt lat="43.37341" lon="2.54222">
        <ele>374.87</ele>
        <time>2021-05-27T07:28:06Z</time>
      </trkpt>
      <trkpt lat="43.37317" lon="2.54208">
        <ele>376</ele>
        <time>2021-05-27T07:28:16Z</time>
      </trkpt>
      <trkpt lat="43.37288" lon="2.54198">
        <ele>377.78</ele>
        <time>2021-05-27T07:28:30Z</time>
      </trkpt>
      <trkpt lat="43.37259" lon="2.54159">
        <ele>378.59</ele>
        <time>2021-05-27T07:28:48Z</time>
      </trkpt>
      <trkpt lat="43.37258" lon="2.54096">
        <ele>381.31</ele>
        <time>2021-05-27T07:29:09Z</time>
      </trkpt>
      <trkpt lat="43.37243" lon="2.54053">
        <ele>384.35</ele>
        <time>2021-05-27T07:29:30Z</time>
      </trkpt>
      <trkpt lat="43.37217" lon="2.54035">
        <ele>386.65</ele>
        <time>2021-05-27T07:29:46Z</time>
      </trkpt>
      <trkpt lat="43.37214" lon="2.54035">
        <ele>386.82</ele>
        <time>2021-05-27T07:29:48Z</time>
      </trkpt>
      <trkpt lat="43.37194" lon="2.54046">
        <ele>390.58</ele>
        <time>2021-05-27T07:30:07Z</time>
      </trkpt>
      <trkpt lat="43.37176" lon="2.54092">
        <ele>394.76</ele>
        <time>2021-05-27T07:30:29Z</time>
      </trkpt>
      <trkpt lat="43.37176" lon="2.54124">
        <ele>399.1</ele>
        <time>2021-05-27T07:31:00Z</time>
      </trkpt>
      <trkpt lat="43.372" lon="2.54103">
        <ele>402.57</ele>
        <time>2021-05-27T07:31:21Z</time>
      </trkpt>
      <trkpt lat="43.37211" lon="2.54099">
        <ele>405.63</ele>
        <time>2021-05-27T07:31:43Z</time>
      </trkpt>
      <trkpt lat="43.37198" lon="2.54116">
        <ele>406.39</ele>
        <time>2021-05-27T07:31:55Z</time>
      </trkpt>
      <trkpt lat="43.37179" lon="2.54138">
        <ele>408.66</ele>
        <time>2021-05-27T07:32:08Z</time>
      </trkpt>
      <trkpt lat="43.37164" lon="2.54161">
        <ele>411.78</ele>
        <time>2021-05-27T07:32:24Z</time>
      </trkpt>
      <trkpt lat="43.37122" lon="2.5418">
        <ele>416.27</ele>
        <time>2021-05-27T07:32:49Z</time>
      </trkpt>
      <trkpt lat="43.37096" lon="2.54175">
        <ele>419.33</ele>
        <time>2021-05-27T07:33:05Z</time>
      </trkpt>
      <trkpt lat="43.37065" lon="2.54163">
        <ele>423.88</ele>
        <time>2021-05-27T07:33:24Z</time>
      </trkpt>
      <trkpt lat="43.3704" lon="2.54161">
        <ele>426.04</ele>
        <time>2021-05-27T07:33:40Z</time>
      </trkpt>
      <trkpt lat="43.37013" lon="2.54179">
        <ele>428.55</ele>
        <time>2021-05-27T07:33:56Z</time>
      </trkpt>
      <trkpt lat="43.36989" lon="2.54199">
        <ele>431.32</ele>
        <time>2021-05-27T07:34:13Z</time>
      </trkpt>
      <trkpt lat="43.36949" lon="2.54208">
        <ele>434.23</ele>
        <time>2021-05-27T07:34:31Z</time>
      </trkpt>
      <trkpt lat="43.36921" lon="2.54199">
        <ele>438.23</ele>
        <time>2021-05-27T07:34:48Z</time>
      </trkpt>
      <trkpt lat="43.36894" lon="2.54207">
        <ele>442.12</ele>
        <time>2021-05-27T07:35:05Z</time>
      </trkpt>
      <trkpt lat="43.36864" lon="2.54211">
        <ele>445.55</ele>
        <time>2021-05-27T07:35:31Z</time>
      </trkpt>
      <trkpt lat="43.36854" lon="2.54214">
        <ele>445.12</ele>
        <time>2021-05-27T07:36:10Z</time>
      </trkpt>
      <trkpt lat="43.3683" lon="2.54219">
        <ele>449.85</ele>
        <time>2021-05-27T07:36:42Z</time>
      </trkpt>
      <trkpt lat="43.36813" lon="2.54225">
        <ele>450.13</ele>
        <time>2021-05-27T07:37:11Z</time>
      </trkpt>
      <trkpt lat="43.36785" lon="2.54233">
        <ele>448.85</ele>
        <time>2021-05-27T07:37:26Z</time>
      </trkpt>
      <trkpt lat="43.36759" lon="2.54241">
        <ele>447.96</ele>
        <time>2021-05-27T07:37:41Z</time>
      </trkpt>
      <trkpt lat="43.36731" lon="2.54259">
        <ele>448.81</ele>
        <time>2021-05-27T07:37:59Z</time>
      </trkpt>
      <trkpt lat="43.36701" lon="2.54279">
        <ele>450.08</ele>
        <time>2021-05-27T07:38:16Z</time>
      </trkpt>
      <trkpt lat="43.36672" lon="2.543">
        <ele>449.31</ele>
        <time>2021-05-27T07:38:31Z</time>
      </trkpt>
      <trkpt lat="43.36622" lon="2.54341">
        <ele>449.96</ele>
        <time>2021-05-27T07:38:57Z</time>
      </trkpt>
      <trkpt lat="43.36572" lon="2.54371">
        <ele>457.68</ele>
        <time>2021-05-27T07:39:29Z</time>
      </trkpt>
      <trkpt lat="43.36566" lon="2.54383">
        <ele>458.75</ele>
        <time>2021-05-27T07:39:33Z</time>
      </trkpt>
      <trkpt lat="43.36517" lon="2.54388">
        <ele>460.22</ele>
        <time>2021-05-27T07:40:00Z</time>
      </trkpt>
      <trkpt lat="43.36458" lon="2.54388">
        <ele>466.47</ele>
        <time>2021-05-27T07:40:34Z</time>
      </trkpt>
      <trkpt lat="43.36435" lon="2.544">
        <ele>471.26</ele>
        <time>2021-05-27T07:40:57Z</time>
      </trkpt>
      <trkpt lat="43.364" lon="2.54419">
        <ele>473.73</ele>
        <time>2021-05-27T07:41:19Z</time>
      </trkpt>
      <trkpt lat="43.36357" lon="2.54447">
        <ele>476.35</ele>
        <time>2021-05-27T07:41:45Z</time>
      </trkpt>
      <trkpt lat="43.36312" lon="2.54449">
        <ele>479.39</ele>
        <time>2021-05-27T07:42:09Z</time>
      </trkpt>
      <trkpt lat="43.36263" lon="2.54449">
        <ele>485.15</ele>
        <time>2021-05-27T07:42:38Z</time>
      </trkpt>
      <trkpt lat="43.36226" lon="2.54449">
        <ele>486.56</ele>
        <time>2021-05-27T07:42:57Z</time>
      </trkpt>
      <trkpt lat="43.36196" lon="2.54437">
        <ele>486.42</ele>
        <time>2021-05-27T07:43:14Z</time>
      </trkpt>
      <trkpt lat="43.36171" lon="2.54425">
        <ele>485.04</ele>
        <time>2021-05-27T07:43:29Z</time>
      </trkpt>
      <trkpt lat="43.36153" lon="2.54412">
        <ele>483.9</ele>
        <time>2021-05-27T07:43:39Z</time>
      </trkpt>
      <trkpt lat="43.36133" lon="2.54399">
        <ele>482.46</ele>
        <time>2021-05-27T07:43:49Z</time>
      </trkpt>
      <trkpt lat="43.3611" lon="2.54386">
        <ele>481.53</ele>
        <time>2021-05-27T07:43:58Z</time>
      </trkpt>
      <trkpt lat="43.36087" lon="2.54381">
        <ele>480.81</ele>
        <time>2021-05-27T07:44:05Z</time>
      </trkpt>
      <trkpt lat="43.36065" lon="2.54378">
        <ele>479.51</ele>
        <time>2021-05-27T07:44:13Z</time>
      </trkpt>
      <trkpt lat="43.36043" lon="2.5437">
        <ele>478.5</ele>
        <time>2021-05-27T07:44:21Z</time>
      </trkpt>
      <trkpt lat="43.36023" lon="2.54355">
        <ele>477.09</ele>
        <time>2021-05-27T07:44:30Z</time>
      </trkpt>
      <trkpt lat="43.36" lon="2.54345">
        <ele>475.88</ele>
        <time>2021-05-27T07:44:39Z</time>
      </trkpt>
      <trkpt lat="43.35977" lon="2.54339">
        <ele>474.14</ele>
        <time>2021-05-27T07:44:48Z</time>
      </trkpt>
      <trkpt lat="43.35952" lon="2.54335">
        <ele>472.31</ele>
        <time>2021-05-27T07:44:58Z</time>
      </trkpt>
      <trkpt lat="43.35927" lon="2.54329">
        <ele>470.89</ele>
        <time>2021-05-27T07:45:06Z</time>
      </trkpt>
      <trkpt lat="43.35904" lon="2.5432">
        <ele>469.64</ele>
        <time>2021-05-27T07:45:15Z</time>
      </trkpt>
      <trkpt lat="43.3588" lon="2.54309">
        <ele>468.06</ele>
        <time>2021-05-27T07:45:24Z</time>
      </trkpt>
      <trkpt lat="43.35856" lon="2.54292">
        <ele>466.45</ele>
        <time>2021-05-27T07:45:34Z</time>
      </trkpt>
      <trkpt lat="43.35833" lon="2.54273">
        <ele>465.62</ele>
        <time>2021-05-27T07:45:43Z</time>
      </trkpt>
      <trkpt lat="43.35812" lon="2.54256">
        <ele>464.18</ele>
        <time>2021-05-27T07:45:51Z</time>
      </trkpt>
      <trkpt lat="43.35791" lon="2.54238">
        <ele>462.97</ele>
        <time>2021-05-27T07:45:59Z</time>
      </trkpt>
      <trkpt lat="43.35771" lon="2.54221">
        <ele>461.58</ele>
        <time>2021-05-27T07:46:07Z</time>
      </trkpt>
      <trkpt lat="43.35753" lon="2.54204">
        <ele>460</ele>
        <time>2021-05-27T07:46:15Z</time>
      </trkpt>
      <trkpt lat="43.35736" lon="2.54184">
        <ele>458.72</ele>
        <time>2021-05-27T07:46:23Z</time>
      </trkpt>
      <trkpt lat="43.35734" lon="2.54181">
        <ele>458.54</ele>
        <time>2021-05-27T07:46:24Z</time>
      </trkpt>
      <trkpt lat="43.35715" lon="2.54163">
        <ele>457.38</ele>
        <time>2021-05-27T07:46:32Z</time>
      </trkpt>
      <trkpt lat="43.35694" lon="2.54149">
        <ele>455.93</ele>
        <time>2021-05-27T07:46:41Z</time>
      </trkpt>
      <trkpt lat="43.35673" lon="2.5413">
        <ele>454.91</ele>
        <time>2021-05-27T07:46:50Z</time>
      </trkpt>
      <trkpt lat="43.35652" lon="2.54111">
        <ele>454.01</ele>
        <time>2021-05-27T07:46:59Z</time>
      </trkpt>
      <trkpt lat="43.35634" lon="2.5409">
        <ele>452.54</ele>
        <time>2021-05-27T07:47:08Z</time>
      </trkpt>
      <trkpt lat="43.35614" lon="2.54071">
        <ele>451.96</ele>
        <time>2021-05-27T07:47:16Z</time>
      </trkpt>
      <trkpt lat="43.35594" lon="2.5405">
        <ele>451.08</ele>
        <time>2021-05-27T07:47:25Z</time>
      </trkpt>
      <trkpt lat="43.35576" lon="2.54032">
        <ele>450.14</ele>
        <time>2021-05-27T07:47:33Z</time>
      </trkpt>
      <trkpt lat="43.35555" lon="2.54015">
        <ele>449.15</ele>
        <time>2021-05-27T07:47:41Z</time>
      </trkpt>
      <trkpt lat="43.35535" lon="2.53997">
        <ele>448.26</ele>
        <time>2021-05-27T07:47:50Z</time>
      </trkpt>
      <trkpt lat="43.35516" lon="2.53979">
        <ele>447.64</ele>
        <time>2021-05-27T07:47:59Z</time>
      </trkpt>
      <trkpt lat="43.355" lon="2.53958">
        <ele>447.22</ele>
        <time>2021-05-27T07:48:08Z</time>
      </trkpt>
      <trkpt lat="43.35482" lon="2.53929">
        <ele>446.38</ele>
        <time>2021-05-27T07:48:18Z</time>
      </trkpt>
      <trkpt lat="43.35471" lon="2.53902">
        <ele>445.45</ele>
        <time>2021-05-27T07:48:26Z</time>
      </trkpt>
      <trkpt lat="43.35462" lon="2.5387">
        <ele>444.3</ele>
        <time>2021-05-27T07:48:35Z</time>
      </trkpt>
      <trkpt lat="43.35451" lon="2.53836">
        <ele>442.95</ele>
        <time>2021-05-27T07:48:44Z</time>
      </trkpt>
      <trkpt lat="43.35443" lon="2.53805">
        <ele>442.34</ele>
        <time>2021-05-27T07:48:58Z</time>
      </trkpt>
      <trkpt lat="43.3544" lon="2.53771">
        <ele>441.2</ele>
        <time>2021-05-27T07:49:14Z</time>
      </trkpt>
      <trkpt lat="43.35443" lon="2.53684">
        <ele>439.82</ele>
        <time>2021-05-27T07:49:40Z</time>
      </trkpt>
      <trkpt lat="43.35439" lon="2.53647">
        <ele>439.33</ele>
        <time>2021-05-27T07:50:01Z</time>
      </trkpt>
      <trkpt lat="43.3542" lon="2.53608">
        <ele>439.84</ele>
        <time>2021-05-27T07:50:16Z</time>
      </trkpt>
      <trkpt lat="43.35386" lon="2.53568">
        <ele>444.09</ele>
        <time>2021-05-27T07:50:37Z</time>
      </trkpt>
      <trkpt lat="43.3536" lon="2.53537">
        <ele>447.67</ele>
        <time>2021-05-27T07:50:55Z</time>
      </trkpt>
      <trkpt lat="43.35325" lon="2.53505">
        <ele>447.44</ele>
        <time>2021-05-27T07:51:15Z</time>
      </trkpt>
      <trkpt lat="43.35287" lon="2.53485">
        <ele>437.8</ele>
        <time>2021-05-27T07:51:37Z</time>
      </trkpt>
      <trkpt lat="43.35229" lon="2.53446">
        <ele>426.39</ele>
        <time>2021-05-27T07:52:04Z</time>
      </trkpt>
      <trkpt lat="43.35191" lon="2.53409">
        <ele>420.49</ele>
        <time>2021-05-27T07:52:22Z</time>
      </trkpt>
      <trkpt lat="43.35175" lon="2.53359">
        <ele>414.51</ele>
        <time>2021-05-27T07:52:37Z</time>
      </trkpt>
      <trkpt lat="43.35172" lon="2.53354">
        <ele>413.83</ele>
        <time>2021-05-27T07:52:39Z</time>
      </trkpt>
      <trkpt lat="43.35116" lon="2.53277">
        <ele>402.1</ele>
        <time>2021-05-27T07:53:11Z</time>
      </trkpt>
      <trkpt lat="43.35078" lon="2.5321">
        <ele>395.01</ele>
        <time>2021-05-27T07:53:31Z</time>
      </trkpt>
      <trkpt lat="43.35073" lon="2.5316">
        <ele>391.01</ele>
        <time>2021-05-27T07:53:43Z</time>
      </trkpt>
      <trkpt lat="43.35058" lon="2.5312">
        <ele>384.36</ele>
        <time>2021-05-27T07:54:01Z</time>
      </trkpt>
      <trkpt lat="43.35052" lon="2.53067">
        <ele>377.24</ele>
        <time>2021-05-27T07:54:18Z</time>
      </trkpt>
      <trkpt lat="43.35029" lon="2.53012">
        <ele>372.73</ele>
        <time>2021-05-27T07:54:38Z</time>
      </trkpt>
      <trkpt lat="43.35031" lon="2.52951">
        <ele>368.37</ele>
        <time>2021-05-27T07:54:53Z</time>
      </trkpt>
      <trkpt lat="43.35026" lon="2.52915">
        <ele>365.46</ele>
        <time>2021-05-27T07:55:04Z</time>
      </trkpt>
      <trkpt lat="43.34996" lon="2.52912">
        <ele>361.14</ele>
        <time>2021-05-27T07:55:20Z</time>
      </trkpt>
      <trkpt lat="43.34955" lon="2.5289">
        <ele>354.7</ele>
        <time>2021-05-27T07:55:40Z</time>
      </trkpt>
      <trkpt lat="43.34914" lon="2.52859">
        <ele>349.41</ele>
        <time>2021-05-27T07:55:57Z</time>
      </trkpt>
      <trkpt lat="43.34878" lon="2.5283">
        <ele>344.41</ele>
        <time>2021-05-27T07:56:17Z</time>
      </trkpt>
      <trkpt lat="43.3484" lon="2.52807">
        <ele>336.92</ele>
        <time>2021-05-27T07:56:38Z</time>
      </trkpt>
      <trkpt lat="43.34787" lon="2.52778">
        <ele>327.09</ele>
        <time>2021-05-27T07:57:04Z</time>
      </trkpt>
      <trkpt lat="43.34754" lon="2.52738">
        <ele>317.66</ele>
        <time>2021-05-27T07:57:29Z</time>
      </trkpt>
      <trkpt lat="43.34727" lon="2.52676">
        <ele>309.62</ele>
        <time>2021-05-27T07:57:51Z</time>
      </trkpt>
      <trkpt lat="43.34712" lon="2.5263">
        <ele>305.02</ele>
        <time>2021-05-27T07:58:09Z</time>
      </trkpt>
      <trkpt lat="43.34672" lon="2.52585">
        <ele>298.99</ele>
        <time>2021-05-27T07:58:36Z</time>
      </trkpt>
      <trkpt lat="43.34635" lon="2.52553">
        <ele>293.04</ele>
        <time>2021-05-27T07:58:53Z</time>
      </trkpt>
      <trkpt lat="43.34633" lon="2.52553">
        <ele>293.04</ele>
        <time>2021-05-27T07:58:54Z</time>
      </trkpt>
      <trkpt lat="43.34585" lon="2.52547">
        <ele>282.78</ele>
        <time>2021-05-27T07:59:21Z</time>
      </trkpt>
      <trkpt lat="43.34544" lon="2.5254">
        <ele>275.86</ele>
        <time>2021-05-27T07:59:51Z</time>
      </trkpt>
      <trkpt lat="43.34473" lon="2.52551">
        <ele>273.1</ele>
        <time>2021-05-27T08:00:36Z</time>
      </trkpt>
      <trkpt lat="43.34435" lon="2.52529">
        <ele>270.03</ele>
        <time>2021-05-27T08:01:01Z</time>
      </trkpt>
      <trkpt lat="43.34414" lon="2.52546">
        <ele>267.52</ele>
        <time>2021-05-27T08:01:13Z</time>
      </trkpt>
      <trkpt lat="43.34396" lon="2.52595">
        <ele>269.67</ele>
        <time>2021-05-27T08:01:39Z</time>
      </trkpt>
      <trkpt lat="43.34365" lon="2.52629">
        <ele>274.82</ele>
        <time>2021-05-27T08:02:10Z</time>
      </trkpt>
      <trkpt lat="43.34303" lon="2.52708">
        <ele>280.39</ele>
        <time>2021-05-27T08:02:54Z</time>
      </trkpt>
      <trkpt lat="43.34228" lon="2.52741">
        <ele>282.46</ele>
        <time>2021-05-27T08:03:27Z</time>
      </trkpt>
      <trkpt lat="43.34133" lon="2.52771">
        <ele>292.14</ele>
        <time>2021-05-27T08:04:12Z</time>
      </trkpt>
      <trkpt lat="43.3408" lon="2.52755">
        <ele>296.88</ele>
        <time>2021-05-27T08:04:49Z</time>
      </trkpt>
      <trkpt lat="43.34028" lon="2.52721">
        <ele>299.33</ele>
        <time>2021-05-27T08:05:14Z</time>
      </trkpt>
      <trkpt lat="43.34009" lon="2.52712">
        <ele>297.61</ele>
        <time>2021-05-27T08:05:30Z</time>
      </trkpt>
      <trkpt lat="43.33985" lon="2.52745">
        <ele>295.18</ele>
        <time>2021-05-27T08:05:53Z</time>
      </trkpt>
      <trkpt lat="43.33924" lon="2.52795">
        <ele>296.91</ele>
        <time>2021-05-27T08:06:23Z</time>
      </trkpt>
      <trkpt lat="43.33875" lon="2.52799">
        <ele>293.67</ele>
        <time>2021-05-27T08:06:48Z</time>
      </trkpt>
      <trkpt lat="43.33872" lon="2.528">
        <ele>293.64</ele>
        <time>2021-05-27T08:06:49Z</time>
      </trkpt>
      <trkpt lat="43.33837" lon="2.52812">
        <ele>291.89</ele>
        <time>2021-05-27T08:07:07Z</time>
      </trkpt>
      <trkpt lat="43.3381" lon="2.52851">
        <ele>290.31</ele>
        <time>2021-05-27T08:07:28Z</time>
      </trkpt>
      <trkpt lat="43.33762" lon="2.52859">
        <ele>288.65</ele>
        <time>2021-05-27T08:07:53Z</time>
      </trkpt>
      <trkpt lat="43.33703" lon="2.52834">
        <ele>286.13</ele>
        <time>2021-05-27T08:08:26Z</time>
      </trkpt>
      <trkpt lat="43.33672" lon="2.52831">
        <ele>282.48</ele>
        <time>2021-05-27T08:08:40Z</time>
      </trkpt>
      <trkpt lat="43.33639" lon="2.52845">
        <ele>280.16</ele>
        <time>2021-05-27T08:08:53Z</time>
      </trkpt>
      <trkpt lat="43.33607" lon="2.52863">
        <ele>278.52</ele>
        <time>2021-05-27T08:09:15Z</time>
      </trkpt>
      <trkpt lat="43.33551" lon="2.52851">
        <ele>268.51</ele>
        <time>2021-05-27T08:09:46Z</time>
      </trkpt>
      <trkpt lat="43.33496" lon="2.52842">
        <ele>262.77</ele>
        <time>2021-05-27T08:10:10Z</time>
      </trkpt>
      <trkpt lat="43.33456" lon="2.5278">
        <ele>257.93</ele>
        <time>2021-05-27T08:10:36Z</time>
      </trkpt>
      <trkpt lat="43.33439" lon="2.52734">
        <ele>255.81</ele>
        <time>2021-05-27T08:10:50Z</time>
      </trkpt>
      <trkpt lat="43.33429" lon="2.52692">
        <ele>256.64</ele>
        <time>2021-05-27T08:11:05Z</time>
      </trkpt>
      <trkpt lat="43.33419" lon="2.52679">
        <ele>258.44</ele>
        <time>2021-05-27T08:12:02Z</time>
      </trkpt>
      <trkpt lat="43.33417" lon="2.52691">
        <ele>258.9</ele>
        <time>2021-05-27T08:12:59Z</time>
      </trkpt>
      <trkpt lat="43.33395" lon="2.52699">
        <ele>259.84</ele>
        <time>2021-05-27T08:13:18Z</time>
      </trkpt>
      <trkpt lat="43.33374" lon="2.52696">
        <ele>260.05</ele>
        <time>2021-05-27T08:13:38Z</time>
      </trkpt>
      <trkpt lat="43.33359" lon="2.52676">
        <ele>259.74</ele>
        <time>2021-05-27T08:13:52Z</time>
      </trkpt>
      <trkpt lat="43.33344" lon="2.52647">
        <ele>258.98</ele>
        <time>2021-05-27T08:14:06Z</time>
      </trkpt>
      <trkpt lat="43.33324" lon="2.52623">
        <ele>258.41</ele>
        <time>2021-05-27T08:14:17Z</time>
      </trkpt>
      <trkpt lat="43.33307" lon="2.52599">
        <ele>256.95</ele>
        <time>2021-05-27T08:14:28Z</time>
      </trkpt>
      <trkpt lat="43.33287" lon="2.52572">
        <ele>253.95</ele>
        <time>2021-05-27T08:14:42Z</time>
      </trkpt>
      <trkpt lat="43.33268" lon="2.52564">
        <ele>251.91</ele>
        <time>2021-05-27T08:14:51Z</time>
      </trkpt>
      <trkpt lat="43.33247" lon="2.52568">
        <ele>250.2</ele>
        <time>2021-05-27T08:14:58Z</time>
      </trkpt>
      <trkpt lat="43.33229" lon="2.52571">
        <ele>247.3</ele>
        <time>2021-05-27T08:15:07Z</time>
      </trkpt>
      <trkpt lat="43.33207" lon="2.52576">
        <ele>244.32</ele>
        <time>2021-05-27T08:15:16Z</time>
      </trkpt>
      <trkpt lat="43.33191" lon="2.52593">
        <ele>242.1</ele>
        <time>2021-05-27T08:15:24Z</time>
      </trkpt>
      <trkpt lat="43.33177" lon="2.52607">
        <ele>240.06</ele>
        <time>2021-05-27T08:15:30Z</time>
      </trkpt>
      <trkpt lat="43.33173" lon="2.52612">
        <ele>239.74</ele>
        <time>2021-05-27T08:15:32Z</time>
      </trkpt>
      <trkpt lat="43.33159" lon="2.52633">
        <ele>237.17</ele>
        <time>2021-05-27T08:15:41Z</time>
      </trkpt>
      <trkpt lat="43.33145" lon="2.52657">
        <ele>235.17</ele>
        <time>2021-05-27T08:15:50Z</time>
      </trkpt>
      <trkpt lat="43.33127" lon="2.52676">
        <ele>232.58</ele>
        <time>2021-05-27T08:16:02Z</time>
      </trkpt>
      <trkpt lat="43.33113" lon="2.52699">
        <ele>230.08</ele>
        <time>2021-05-27T08:16:13Z</time>
      </trkpt>
      <trkpt lat="43.33093" lon="2.52706">
        <ele>223.94</ele>
        <time>2021-05-27T08:16:31Z</time>
      </trkpt>
      <trkpt lat="43.33041" lon="2.52667">
        <ele>211.06</ele>
        <time>2021-05-27T08:16:58Z</time>
      </trkpt>
      <trkpt lat="43.33016" lon="2.5266">
        <ele>206.63</ele>
        <time>2021-05-27T08:17:08Z</time>
      </trkpt>
      <trkpt lat="43.32986" lon="2.52654">
        <ele>202.18</ele>
        <time>2021-05-27T08:17:19Z</time>
      </trkpt>
      <trkpt lat="43.32962" lon="2.52661">
        <ele>198.33</ele>
        <time>2021-05-27T08:17:27Z</time>
      </trkpt>
      <trkpt lat="43.32938" lon="2.52672">
        <ele>195.44</ele>
        <time>2021-05-27T08:17:35Z</time>
      </trkpt>
      <trkpt lat="43.32919" lon="2.52684">
        <ele>192.86</ele>
        <time>2021-05-27T08:17:43Z</time>
      </trkpt>
      <trkpt lat="43.329" lon="2.52697">
        <ele>190.98</ele>
        <time>2021-05-27T08:17:50Z</time>
      </trkpt>
      <trkpt lat="43.32882" lon="2.5271">
        <ele>190.04</ele>
        <time>2021-05-27T08:17:57Z</time>
      </trkpt>
      <trkpt lat="43.32862" lon="2.52717">
        <ele>188.24</ele>
        <time>2021-05-27T08:18:04Z</time>
      </trkpt>
      <trkpt lat="43.32842" lon="2.52712">
        <ele>185.9</ele>
        <time>2021-05-27T08:18:11Z</time>
      </trkpt>
      <trkpt lat="43.32821" lon="2.52709">
        <ele>181.87</ele>
        <time>2021-05-27T08:18:20Z</time>
      </trkpt>
      <trkpt lat="43.32802" lon="2.52716">
        <ele>178.58</ele>
        <time>2021-05-27T08:18:29Z</time>
      </trkpt>
      <trkpt lat="43.32749" lon="2.52736">
        <ele>174.08</ele>
        <time>2021-05-27T08:18:51Z</time>
      </trkpt>
      <trkpt lat="43.32697" lon="2.52694">
        <ele>168.45</ele>
        <time>2021-05-27T08:19:17Z</time>
      </trkpt>
      <trkpt lat="43.32639" lon="2.52622">
        <ele>161.77</ele>
        <time>2021-05-27T08:19:51Z</time>
      </trkpt>
      <trkpt lat="43.32634" lon="2.52572">
        <ele>163.25</ele>
        <time>2021-05-27T08:20:10Z</time>
      </trkpt>
      <trkpt lat="43.3263" lon="2.52549">
        <ele>138.62</ele>
        <time>2021-05-27T08:20:25Z</time>
      </trkpt>
    </trkseg>
  </trk>
</gpx>